DLH3W EDDF-KIAD
Flight info
| Callsign | DLH3W |
|---|---|
| Flight time | 8h 14m |
| Altitude | 38000 |
| Route | OBOKA3M/25C OBOKA Z29 TORNU DCT VICOT DCT GALSO Q63 ERING L179 UGBET Q60 OKSAW DCT BIBPE DCT TIGWE DCT FELCA DCT FADZU DCT NICXI DCT OFSOX DCT SLANY DCT DIMUS DCT MALOT/M082F390 NATE RIKAL/N0475F400 DCT TAFFY DCT KJOHN DCT ALB HYPER9 |
| Aircraft | A346/H-SDE2E3FGHIJ3J4J5M1RWXYZ/LB1D1 |
Departure
| Time | 2026-05-05 11:25 |
|---|---|
| Airport | Frankfurt Main Airport (EDDF) |
Arrival
| Time | 2026-05-05 19:39 |
|---|---|
| Airport | Washington Dulles International Airport (KIAD) |
| Time | Latitude | Longitude | Altitude | Speed | Heading |
|---|---|---|---|---|---|
| 2026-05-05 10:28 | 50.04669 | 8.56048 | 364 ft | 0 kts | 340° |
| 2026-05-05 11:12 | 50.04658 | 8.56054 | 364 ft | 4 kts | 340° |
| 2026-05-05 11:12 | 50.04633 | 8.56068 | 368 ft | 4 kts | 340° |
| 2026-05-05 11:12 | 50.04614 | 8.56081 | 369 ft | 4 kts | 327° |
| 2026-05-05 11:13 | 50.04599 | 8.56103 | 369 ft | 4 kts | 295° |
| 2026-05-05 11:13 | 50.04596 | 8.56133 | 370 ft | 4 kts | 260° |
| 2026-05-05 11:13 | 50.04599 | 8.56150 | 368 ft | 3 kts | 251° |
| 2026-05-05 11:13 | 50.04590 | 8.56112 | 368 ft | 4 kts | 249° |
| 2026-05-05 11:14 | 50.04580 | 8.56074 | 366 ft | 2 kts | 249° |
| 2026-05-05 11:14 | 50.04579 | 8.56070 | 368 ft | 0 kts | 250° |
| 2026-05-05 11:17 | 50.04578 | 8.56065 | 368 ft | 2 kts | 250° |
| 2026-05-05 11:17 | 50.04571 | 8.56036 | 370 ft | 4 kts | 248° |
| 2026-05-05 11:18 | 50.04550 | 8.55985 | 368 ft | 6 kts | 225° |
| 2026-05-05 11:18 | 50.04502 | 8.55947 | 370 ft | 9 kts | 198° |
| 2026-05-05 11:18 | 50.04439 | 8.55917 | 370 ft | 11 kts | 191° |
| 2026-05-05 11:18 | 50.04357 | 8.55929 | 368 ft | 14 kts | 163° |
| 2026-05-05 11:19 | 50.04263 | 8.55943 | 365 ft | 14 kts | 198° |
| 2026-05-05 11:19 | 50.04173 | 8.55930 | 361 ft | 14 kts | 166° |
| 2026-05-05 11:19 | 50.04090 | 8.55991 | 367 ft | 14 kts | 129° |
| 2026-05-05 11:19 | 50.04092 | 8.56124 | 364 ft | 12 kts | 71° |
| 2026-05-05 11:20 | 50.04122 | 8.56256 | 365 ft | 14 kts | 70° |
| 2026-05-05 11:20 | 50.04156 | 8.56397 | 367 ft | 14 kts | 70° |
| 2026-05-05 11:20 | 50.04191 | 8.56545 | 367 ft | 15 kts | 70° |
| 2026-05-05 11:20 | 50.04227 | 8.56696 | 371 ft | 15 kts | 69° |
| 2026-05-05 11:21 | 50.04262 | 8.56842 | 369 ft | 15 kts | 69° |
| 2026-05-05 11:21 | 50.04300 | 8.57000 | 373 ft | 16 kts | 70° |
| 2026-05-05 11:21 | 50.04341 | 8.57172 | 371 ft | 18 kts | 69° |
| 2026-05-05 11:21 | 50.04386 | 8.57365 | 373 ft | 20 kts | 70° |
| 2026-05-05 11:22 | 50.04435 | 8.57569 | 374 ft | 20 kts | 69° |
| 2026-05-05 11:22 | 50.04485 | 8.57776 | 376 ft | 21 kts | 69° |
| 2026-05-05 11:22 | 50.04533 | 8.57978 | 376 ft | 20 kts | 69° |
| 2026-05-05 11:22 | 50.04579 | 8.58171 | 376 ft | 16 kts | 70° |
| 2026-05-05 11:23 | 50.04608 | 8.58292 | 379 ft | 12 kts | 70° |
| 2026-05-05 11:23 | 50.04638 | 8.58417 | 378 ft | 12 kts | 70° |
| 2026-05-05 11:23 | 50.04640 | 8.58536 | 378 ft | 12 kts | 118° |
| 2026-05-05 11:23 | 50.04594 | 8.58589 | 381 ft | 8 kts | 158° |
| 2026-05-05 11:24 | 50.04535 | 8.58611 | 379 ft | 9 kts | 184° |
| 2026-05-05 11:24 | 50.04481 | 8.58556 | 382 ft | 9 kts | 242° |
| 2026-05-05 11:24 | 50.04461 | 8.58489 | 381 ft | 7 kts | 248° |
| 2026-05-05 11:24 | 50.04395 | 8.58211 | 380 ft | 59 kts | 250° |
| 2026-05-05 11:25 | 50.04177 | 8.57290 | 377 ft | 120 kts | 249° |
| 2026-05-05 11:25 | 50.03822 | 8.55805 | 367 ft | 171 kts | 249° |
| 2026-05-05 11:25 | 50.03385 | 8.53918 | 552 ft | 197 kts | 252° |
| 2026-05-05 11:25 | 50.02943 | 8.51853 | 1130 ft | 204 kts | 250° |
| 2026-05-05 11:26 | 50.02317 | 8.49875 | 1865 ft | 204 kts | 231° |
| 2026-05-05 11:26 | 50.01141 | 8.48705 | 2446 ft | 205 kts | 197° |
| 2026-05-05 11:26 | 49.99739 | 8.48224 | 3017 ft | 208 kts | 190° |
| 2026-05-05 11:26 | 49.98318 | 8.47802 | 3652 ft | 208 kts | 191° |
| 2026-05-05 11:27 | 49.96902 | 8.47320 | 4273 ft | 209 kts | 193° |
| 2026-05-05 11:27 | 49.95489 | 8.46769 | 4809 ft | 212 kts | 195° |
| 2026-05-05 11:27 | 49.94022 | 8.46127 | 5096 ft | 225 kts | 196° |
| 2026-05-05 11:27 | 49.92476 | 8.45387 | 5354 ft | 242 kts | 203° |
| 2026-05-05 11:28 | 49.91107 | 8.43895 | 5877 ft | 248 kts | 229° |
| 2026-05-05 11:28 | 49.90138 | 8.41675 | 6606 ft | 248 kts | 237° |
| 2026-05-05 11:28 | 49.89258 | 8.39362 | 7291 ft | 250 kts | 240° |
| 2026-05-05 11:28 | 49.88657 | 8.36803 | 7906 ft | 257 kts | 259° |
| 2026-05-05 11:29 | 49.88599 | 8.33973 | 8407 ft | 271 kts | 272° |
| 2026-05-05 11:29 | 49.88758 | 8.30982 | 8849 ft | 284 kts | 274° |
| 2026-05-05 11:29 | 49.89038 | 8.27914 | 9487 ft | 290 kts | 283° |
| 2026-05-05 11:29 | 49.89796 | 8.24994 | 10150 ft | 295 kts | 299° |
| 2026-05-05 11:30 | 49.90979 | 8.22300 | 10573 ft | 309 kts | 305° |
| 2026-05-05 11:30 | 49.92316 | 8.19563 | 10922 ft | 327 kts | 306° |
| 2026-05-05 11:30 | 49.93810 | 8.16770 | 11230 ft | 345 kts | 310° |
| 2026-05-05 11:30 | 49.95509 | 8.14084 | 11532 ft | 362 kts | 316° |
| 2026-05-05 11:31 | 49.97444 | 8.11431 | 11819 ft | 378 kts | 318° |
| 2026-05-05 11:31 | 49.99472 | 8.08739 | 12282 ft | 387 kts | 318° |
| 2026-05-05 11:31 | 50.01537 | 8.06009 | 12951 ft | 390 kts | 318° |
| 2026-05-05 11:31 | 50.03610 | 8.03256 | 13590 ft | 393 kts | 318° |
| 2026-05-05 11:32 | 50.05696 | 8.00474 | 14145 ft | 397 kts | 318° |
| 2026-05-05 11:32 | 50.07804 | 7.97652 | 14740 ft | 401 kts | 317° |
| 2026-05-05 11:32 | 50.09931 | 7.94797 | 15368 ft | 406 kts | 317° |
| 2026-05-05 11:32 | 50.12077 | 7.91911 | 16003 ft | 409 kts | 317° |
| 2026-05-05 11:33 | 50.14217 | 7.89030 | 16648 ft | 413 kts | 317° |
| 2026-05-05 11:33 | 50.16406 | 7.86080 | 17300 ft | 418 kts | 317° |
| 2026-05-05 11:33 | 50.18613 | 7.83100 | 17984 ft | 421 kts | 317° |
| 2026-05-05 11:33 | 50.20838 | 7.80087 | 18597 ft | 425 kts | 317° |
| 2026-05-05 11:34 | 50.23099 | 7.77075 | 19144 ft | 429 kts | 320° |
| 2026-05-05 11:34 | 50.25536 | 7.74333 | 19724 ft | 434 kts | 326° |
| 2026-05-05 11:34 | 50.28170 | 7.71972 | 20291 ft | 439 kts | 332° |
| 2026-05-05 11:34 | 50.30955 | 7.69951 | 20842 ft | 443 kts | 335° |
| 2026-05-05 11:35 | 50.33795 | 7.68032 | 21402 ft | 447 kts | 335° |
| 2026-05-05 11:35 | 50.36627 | 7.66134 | 21935 ft | 450 kts | 335° |
| 2026-05-05 11:35 | 50.39513 | 7.64177 | 22485 ft | 454 kts | 335° |
| 2026-05-05 11:35 | 50.42422 | 7.62189 | 23007 ft | 458 kts | 335° |
| 2026-05-05 11:36 | 50.45350 | 7.60175 | 23500 ft | 462 kts | 335° |
| 2026-05-05 11:36 | 50.48304 | 7.58138 | 23951 ft | 465 kts | 335° |
| 2026-05-05 11:36 | 50.51279 | 7.56083 | 24418 ft | 468 kts | 334° |
| 2026-05-05 11:36 | 50.54061 | 7.53469 | 24792 ft | 467 kts | 316° |
| 2026-05-05 11:37 | 50.56125 | 7.49589 | 25261 ft | 461 kts | 299° |
| 2026-05-05 11:37 | 50.57719 | 7.45296 | 25813 ft | 460 kts | 296° |
| 2026-05-05 11:37 | 50.59269 | 7.40865 | 26232 ft | 463 kts | 296° |
| 2026-05-05 11:37 | 50.60852 | 7.36415 | 26658 ft | 467 kts | 296° |
| 2026-05-05 11:38 | 50.62480 | 7.31968 | 27124 ft | 469 kts | 297° |
| 2026-05-05 11:38 | 50.64142 | 7.27528 | 27582 ft | 471 kts | 297° |
| 2026-05-05 11:38 | 50.65832 | 7.23074 | 28040 ft | 473 kts | 297° |
| 2026-05-05 11:38 | 50.67529 | 7.18637 | 28674 ft | 471 kts | 297° |
| 2026-05-05 11:39 | 50.69217 | 7.14242 | 29467 ft | 466 kts | 297° |
| 2026-05-05 11:39 | 50.70869 | 7.09946 | 30179 ft | 462 kts | 297° |
| 2026-05-05 11:39 | 50.72531 | 7.05625 | 30758 ft | 459 kts | 297° |
| 2026-05-05 11:39 | 50.74181 | 7.01325 | 31287 ft | 457 kts | 296° |
| 2026-05-05 11:40 | 50.75823 | 6.97037 | 31748 ft | 456 kts | 296° |
| 2026-05-05 11:40 | 50.77461 | 6.92750 | 32230 ft | 455 kts | 296° |
| 2026-05-05 11:40 | 50.79096 | 6.88468 | 32723 ft | 454 kts | 296° |
| 2026-05-05 11:40 | 50.80725 | 6.84194 | 33221 ft | 452 kts | 296° |
| 2026-05-05 11:41 | 50.82345 | 6.79940 | 33744 ft | 450 kts | 295° |
| 2026-05-05 11:41 | 50.83935 | 6.75752 | 34164 ft | 449 kts | 295° |
| 2026-05-05 11:41 | 50.85540 | 6.71514 | 34542 ft | 449 kts | 295° |
| 2026-05-05 11:41 | 50.87146 | 6.67265 | 34874 ft | 449 kts | 295° |
| 2026-05-05 11:42 | 50.88751 | 6.63014 | 35163 ft | 449 kts | 295° |
| 2026-05-05 11:42 | 50.90376 | 6.58706 | 35465 ft | 450 kts | 295° |
| 2026-05-05 11:42 | 50.91982 | 6.54444 | 35738 ft | 451 kts | 295° |
| 2026-05-05 11:42 | 50.93591 | 6.50165 | 35972 ft | 451 kts | 295° |
| 2026-05-05 11:43 | 50.95200 | 6.45880 | 36204 ft | 452 kts | 296° |
| 2026-05-05 11:43 | 50.96790 | 6.41637 | 36421 ft | 454 kts | 296° |
| 2026-05-05 11:43 | 50.98405 | 6.37322 | 36644 ft | 455 kts | 296° |
| 2026-05-05 11:43 | 51.00023 | 6.32991 | 36871 ft | 457 kts | 296° |
| 2026-05-05 11:44 | 51.01646 | 6.28640 | 37092 ft | 458 kts | 296° |
| 2026-05-05 11:44 | 51.03272 | 6.24276 | 37296 ft | 459 kts | 296° |
| 2026-05-05 11:44 | 51.04903 | 6.19891 | 37494 ft | 461 kts | 296° |
| 2026-05-05 11:44 | 51.06536 | 6.15493 | 37692 ft | 462 kts | 296° |
| 2026-05-05 11:45 | 51.08178 | 6.11058 | 37861 ft | 464 kts | 296° |
| 2026-05-05 11:45 | 51.11468 | 6.02167 | 37882 ft | 466 kts | 296° |
| 2026-05-05 11:46 | 51.14732 | 5.93309 | 37884 ft | 467 kts | 296° |
| 2026-05-05 11:46 | 51.17625 | 5.84100 | 37892 ft | 463 kts | 289° |
| 2026-05-05 11:47 | 51.19834 | 5.74488 | 37899 ft | 459 kts | 283° |
| 2026-05-05 11:47 | 51.21567 | 5.64696 | 37906 ft | 458 kts | 282° |
| 2026-05-05 11:48 | 51.24103 | 5.50030 | 37910 ft | 459 kts | 282° |
| 2026-05-05 11:48 | 51.25798 | 5.40193 | 37913 ft | 459 kts | 282° |
| 2026-05-05 11:49 | 51.27484 | 5.30356 | 37920 ft | 459 kts | 282° |
| 2026-05-05 11:49 | 51.29150 | 5.20577 | 37916 ft | 459 kts | 282° |
| 2026-05-05 11:50 | 51.30820 | 5.10723 | 37914 ft | 459 kts | 282° |
| 2026-05-05 11:50 | 51.32485 | 5.00856 | 37912 ft | 459 kts | 282° |
| 2026-05-05 11:51 | 51.34140 | 4.90991 | 37927 ft | 459 kts | 282° |
| 2026-05-05 11:51 | 51.35776 | 4.81174 | 37933 ft | 459 kts | 282° |
| 2026-05-05 11:52 | 51.37415 | 4.71271 | 37926 ft | 460 kts | 282° |
| 2026-05-05 11:52 | 51.39056 | 4.61324 | 37925 ft | 461 kts | 282° |
| 2026-05-05 11:53 | 51.40687 | 4.51377 | 37906 ft | 461 kts | 282° |
| 2026-05-05 11:53 | 51.42316 | 4.41378 | 37904 ft | 461 kts | 282° |
| 2026-05-05 11:54 | 51.43923 | 4.31461 | 37905 ft | 461 kts | 282° |
| 2026-05-05 11:54 | 51.45531 | 4.21480 | 37907 ft | 461 kts | 282° |
| 2026-05-05 11:55 | 51.47151 | 4.11463 | 37924 ft | 461 kts | 283° |
| 2026-05-05 11:55 | 51.49214 | 4.01679 | 37909 ft | 463 kts | 289° |
| 2026-05-05 11:56 | 51.51838 | 3.92212 | 37917 ft | 464 kts | 292° |
| 2026-05-05 11:56 | 51.54564 | 3.82821 | 37935 ft | 463 kts | 292° |
| 2026-05-05 11:57 | 51.57293 | 3.73378 | 37933 ft | 463 kts | 292° |
| 2026-05-05 11:57 | 51.59998 | 3.63970 | 37934 ft | 463 kts | 292° |
| 2026-05-05 11:58 | 51.62665 | 3.54646 | 37934 ft | 463 kts | 292° |
| 2026-05-05 11:58 | 51.65368 | 3.45158 | 37940 ft | 463 kts | 292° |
| 2026-05-05 11:59 | 51.68045 | 3.35717 | 37955 ft | 462 kts | 292° |
| 2026-05-05 11:59 | 51.70467 | 3.26087 | 37946 ft | 460 kts | 285° |
| 2026-05-05 12:00 | 51.71834 | 3.16043 | 37947 ft | 457 kts | 275° |
| 2026-05-05 12:00 | 51.72097 | 3.05820 | 37948 ft | 455 kts | 265° |
| 2026-05-05 12:01 | 51.71410 | 2.95751 | 37951 ft | 454 kts | 261° |
| 2026-05-05 12:01 | 51.70530 | 2.85642 | 37957 ft | 455 kts | 260° |
| 2026-05-05 12:02 | 51.69642 | 2.75525 | 37952 ft | 455 kts | 260° |
| 2026-05-05 12:02 | 51.68749 | 2.65403 | 37959 ft | 455 kts | 260° |
| 2026-05-05 12:03 | 51.67856 | 2.55362 | 37954 ft | 455 kts | 260° |
| 2026-05-05 12:03 | 51.66948 | 2.45248 | 37958 ft | 455 kts | 260° |
| 2026-05-05 12:04 | 51.66029 | 2.35136 | 37957 ft | 457 kts | 260° |
| 2026-05-05 12:04 | 51.65103 | 2.24993 | 37960 ft | 457 kts | 260° |
| 2026-05-05 12:05 | 51.64172 | 2.14921 | 37954 ft | 457 kts | 260° |
| 2026-05-05 12:05 | 51.63228 | 2.04791 | 37960 ft | 457 kts | 260° |
| 2026-05-05 12:06 | 51.62274 | 1.94662 | 37959 ft | 457 kts | 260° |
| 2026-05-05 12:06 | 51.61311 | 1.84527 | 37967 ft | 458 kts | 260° |
| 2026-05-05 12:07 | 51.60335 | 1.74366 | 37961 ft | 459 kts | 259° |
| 2026-05-05 12:07 | 51.59543 | 1.64167 | 37967 ft | 459 kts | 264° |
| 2026-05-05 12:08 | 51.59398 | 1.53943 | 37975 ft | 460 kts | 270° |
| 2026-05-05 12:08 | 51.59794 | 1.43645 | 37980 ft | 461 kts | 272° |
| 2026-05-05 12:09 | 51.60251 | 1.33315 | 37973 ft | 463 kts | 272° |
| 2026-05-05 12:09 | 51.60711 | 1.22960 | 37972 ft | 463 kts | 272° |
| 2026-05-05 12:10 | 51.61178 | 1.12680 | 37972 ft | 463 kts | 272° |
| 2026-05-05 12:10 | 51.61640 | 1.02319 | 37972 ft | 463 kts | 272° |
| 2026-05-05 12:11 | 51.62091 | 0.91953 | 37969 ft | 465 kts | 272° |
| 2026-05-05 12:11 | 51.62536 | 0.81552 | 37967 ft | 465 kts | 272° |
| 2026-05-05 12:12 | 51.62967 | 0.71211 | 37966 ft | 466 kts | 272° |
| 2026-05-05 12:12 | 51.63393 | 0.60789 | 37966 ft | 466 kts | 272° |
| 2026-05-05 12:13 | 51.63809 | 0.50377 | 37966 ft | 466 kts | 272° |
| 2026-05-05 12:13 | 51.64217 | 0.39939 | 37967 ft | 467 kts | 272° |
| 2026-05-05 12:14 | 51.64616 | 0.29496 | 37966 ft | 467 kts | 271° |
| 2026-05-05 12:14 | 51.65004 | 0.19108 | 37968 ft | 467 kts | 272° |
| 2026-05-05 12:15 | 51.65386 | 0.08658 | 37966 ft | 467 kts | 272° |
| 2026-05-05 12:15 | 51.65755 | -0.01800 | 37994 ft | 467 kts | 272° |
| 2026-05-05 12:16 | 51.66119 | -0.12258 | 37993 ft | 467 kts | 271° |
| 2026-05-05 12:16 | 51.66470 | -0.22713 | 37993 ft | 467 kts | 271° |
| 2026-05-05 12:17 | 51.66813 | -0.33100 | 37994 ft | 467 kts | 271° |
| 2026-05-05 12:17 | 51.67146 | -0.43555 | 37993 ft | 467 kts | 271° |
| 2026-05-05 12:18 | 51.67472 | -0.54019 | 37969 ft | 467 kts | 271° |
| 2026-05-05 12:18 | 51.67787 | -0.64475 | 37970 ft | 467 kts | 271° |
| 2026-05-05 12:19 | 51.68093 | -0.74937 | 37972 ft | 467 kts | 271° |
| 2026-05-05 12:19 | 51.68388 | -0.85328 | 37977 ft | 466 kts | 271° |
| 2026-05-05 12:20 | 51.68675 | -0.95788 | 37968 ft | 467 kts | 271° |
| 2026-05-05 12:20 | 51.68956 | -1.06256 | 37966 ft | 467 kts | 271° |
| 2026-05-05 12:21 | 51.69225 | -1.16732 | 37967 ft | 467 kts | 271° |
| 2026-05-05 12:21 | 51.69488 | -1.27198 | 37968 ft | 466 kts | 271° |
| 2026-05-05 12:22 | 51.69733 | -1.37598 | 37991 ft | 467 kts | 271° |
| 2026-05-05 12:22 | 51.69976 | -1.48063 | 38000 ft | 466 kts | 270° |
| 2026-05-05 12:23 | 51.70203 | -1.58503 | 37993 ft | 466 kts | 271° |
| 2026-05-05 12:23 | 51.70492 | -1.68945 | 37988 ft | 465 kts | 274° |
| 2026-05-05 12:24 | 51.71187 | -1.79262 | 37989 ft | 465 kts | 275° |
| 2026-05-05 12:24 | 51.71945 | -1.89663 | 37998 ft | 466 kts | 275° |
| 2026-05-05 12:25 | 51.72681 | -2.00039 | 37999 ft | 465 kts | 276° |
| 2026-05-05 12:25 | 51.73409 | -2.10443 | 37997 ft | 467 kts | 276° |
| 2026-05-05 12:26 | 51.74130 | -2.20774 | 37998 ft | 465 kts | 275° |
| 2026-05-05 12:26 | 51.74839 | -2.31169 | 37996 ft | 466 kts | 275° |
| 2026-05-05 12:27 | 51.75540 | -2.41586 | 38000 ft | 466 kts | 275° |
| 2026-05-05 12:27 | 51.76233 | -2.52001 | 38004 ft | 466 kts | 275° |
| 2026-05-05 12:28 | 51.76915 | -2.62351 | 38008 ft | 466 kts | 275° |
| 2026-05-05 12:28 | 51.77592 | -2.72775 | 38008 ft | 465 kts | 275° |
| 2026-05-05 12:29 | 51.78256 | -2.83180 | 37993 ft | 465 kts | 275° |
| 2026-05-05 12:29 | 51.78910 | -2.93588 | 37994 ft | 465 kts | 275° |
| 2026-05-05 12:30 | 51.79549 | -3.03905 | 37994 ft | 465 kts | 275° |
| 2026-05-05 12:30 | 51.80188 | -3.14325 | 37997 ft | 465 kts | 275° |
| 2026-05-05 12:31 | 51.80815 | -3.24736 | 38001 ft | 465 kts | 275° |
| 2026-05-05 12:31 | 51.81433 | -3.35156 | 38006 ft | 466 kts | 275° |
| 2026-05-05 12:32 | 51.82040 | -3.45578 | 38010 ft | 464 kts | 275° |
| 2026-05-05 12:32 | 51.82820 | -3.55895 | 38011 ft | 465 kts | 280° |
| 2026-05-05 12:33 | 51.84102 | -3.66171 | 38010 ft | 465 kts | 282° |
| 2026-05-05 12:33 | 51.85438 | -3.76428 | 38019 ft | 464 kts | 282° |
| 2026-05-05 12:34 | 51.86759 | -3.86690 | 38019 ft | 466 kts | 282° |
| 2026-05-05 12:34 | 51.88057 | -3.96907 | 38025 ft | 466 kts | 282° |
| 2026-05-05 12:35 | 51.89356 | -4.07183 | 38024 ft | 465 kts | 282° |
| 2026-05-05 12:35 | 51.90648 | -4.17468 | 38027 ft | 466 kts | 282° |
| 2026-05-05 12:36 | 51.91922 | -4.27716 | 38027 ft | 466 kts | 282° |
| 2026-05-05 12:36 | 51.93193 | -4.38011 | 38038 ft | 465 kts | 282° |
| 2026-05-05 12:37 | 51.94455 | -4.48321 | 38035 ft | 466 kts | 282° |
| 2026-05-05 12:37 | 51.95710 | -4.58636 | 38041 ft | 466 kts | 282° |
| 2026-05-05 12:38 | 51.96942 | -4.68846 | 38039 ft | 462 kts | 282° |
| 2026-05-05 12:38 | 51.98173 | -4.79112 | 38049 ft | 464 kts | 281° |
| 2026-05-05 12:39 | 51.99394 | -4.89399 | 38045 ft | 464 kts | 281° |
| 2026-05-05 12:39 | 52.00601 | -4.99660 | 38051 ft | 462 kts | 281° |
| 2026-05-05 12:40 | 52.01781 | -5.09739 | 38052 ft | 464 kts | 281° |
| 2026-05-05 12:40 | 52.03068 | -5.19650 | 38053 ft | 463 kts | 285° |
| 2026-05-05 12:41 | 52.04943 | -5.29644 | 38055 ft | 461 kts | 289° |
| 2026-05-05 12:41 | 52.06955 | -5.39571 | 38060 ft | 462 kts | 288° |
| 2026-05-05 12:42 | 52.08949 | -5.49456 | 38058 ft | 464 kts | 288° |
| 2026-05-05 12:42 | 52.10942 | -5.59423 | 38063 ft | 463 kts | 288° |
| 2026-05-05 12:43 | 52.12921 | -5.69377 | 38067 ft | 460 kts | 288° |
| 2026-05-05 12:43 | 52.14559 | -5.77648 | 38073 ft | 462 kts | 288° |
| 2026-05-05 12:44 | 52.16845 | -5.89200 | 38070 ft | 461 kts | 288° |
| 2026-05-05 12:44 | 52.18829 | -5.99136 | 38070 ft | 460 kts | 288° |
| 2026-05-05 12:45 | 52.20470 | -6.07394 | 38075 ft | 460 kts | 288° |
| 2026-05-05 12:45 | 52.22434 | -6.17337 | 38069 ft | 460 kts | 288° |
| 2026-05-05 12:46 | 52.24451 | -6.29037 | 38067 ft | 461 kts | 282° |
| 2026-05-05 12:46 | 52.25542 | -6.37632 | 38070 ft | 460 kts | 282° |
| 2026-05-05 12:47 | 52.26799 | -6.47817 | 38066 ft | 460 kts | 282° |
| 2026-05-05 12:47 | 52.28060 | -6.58080 | 38073 ft | 460 kts | 282° |
| 2026-05-05 12:48 | 52.29519 | -6.70023 | 38083 ft | 460 kts | 281° |
| 2026-05-05 12:48 | 52.30562 | -6.78624 | 38088 ft | 460 kts | 281° |
| 2026-05-05 12:49 | 52.31791 | -6.88826 | 38091 ft | 460 kts | 281° |
| 2026-05-05 12:49 | 52.33021 | -6.99111 | 38093 ft | 459 kts | 281° |
| 2026-05-05 12:50 | 52.34236 | -7.09360 | 38096 ft | 458 kts | 281° |
| 2026-05-05 12:50 | 52.35442 | -7.19614 | 38092 ft | 459 kts | 281° |
| 2026-05-05 12:51 | 52.36633 | -7.29819 | 38088 ft | 459 kts | 281° |
| 2026-05-05 12:51 | 52.37822 | -7.40087 | 38086 ft | 458 kts | 281° |
| 2026-05-05 12:52 | 52.39002 | -7.50356 | 38078 ft | 459 kts | 281° |
| 2026-05-05 12:52 | 52.40174 | -7.60646 | 38082 ft | 458 kts | 281° |
| 2026-05-05 12:53 | 52.41328 | -7.70858 | 38085 ft | 458 kts | 281° |
| 2026-05-05 12:53 | 52.42481 | -7.81135 | 38088 ft | 459 kts | 281° |
| 2026-05-05 12:54 | 52.44195 | -7.96586 | 38089 ft | 458 kts | 281° |
| 2026-05-05 12:55 | 52.45324 | -8.06869 | 38095 ft | 457 kts | 281° |
| 2026-05-05 12:55 | 52.46436 | -8.17087 | 38098 ft | 458 kts | 280° |
| 2026-05-05 12:56 | 52.47549 | -8.27391 | 38102 ft | 457 kts | 280° |
| 2026-05-05 12:56 | 52.48652 | -8.37677 | 38105 ft | 457 kts | 280° |
| 2026-05-05 12:57 | 52.49745 | -8.47986 | 38108 ft | 458 kts | 280° |
| 2026-05-05 12:57 | 52.50821 | -8.58235 | 38105 ft | 459 kts | 280° |
| 2026-05-05 12:58 | 52.51899 | -8.68570 | 38107 ft | 459 kts | 280° |
| 2026-05-05 12:58 | 52.52969 | -8.78916 | 38106 ft | 459 kts | 280° |
| 2026-05-05 12:59 | 52.54028 | -8.89263 | 38106 ft | 459 kts | 279° |
| 2026-05-05 12:59 | 52.55073 | -8.99555 | 38105 ft | 459 kts | 279° |
| 2026-05-05 13:00 | 52.56632 | -9.15089 | 38108 ft | 458 kts | 279° |
| 2026-05-05 13:01 | 52.58671 | -9.35731 | 38119 ft | 458 kts | 279° |
| 2026-05-05 13:01 | 52.59681 | -9.46105 | 38128 ft | 458 kts | 279° |
| 2026-05-05 13:02 | 52.60681 | -9.56477 | 38122 ft | 458 kts | 279° |
| 2026-05-05 13:02 | 52.61673 | -9.66849 | 38137 ft | 458 kts | 279° |
| 2026-05-05 13:03 | 52.62654 | -9.77214 | 38128 ft | 458 kts | 279° |
| 2026-05-05 13:03 | 52.63619 | -9.87508 | 38135 ft | 457 kts | 279° |
| 2026-05-05 13:04 | 52.64580 | -9.97872 | 38136 ft | 457 kts | 279° |
| 2026-05-05 13:04 | 52.65534 | -10.08253 | 38133 ft | 457 kts | 279° |
| 2026-05-05 13:05 | 52.66478 | -10.18629 | 38137 ft | 457 kts | 278° |
| 2026-05-05 13:05 | 52.67406 | -10.28931 | 38138 ft | 457 kts | 278° |
| 2026-05-05 13:06 | 52.68330 | -10.39298 | 38138 ft | 457 kts | 278° |
| 2026-05-05 13:06 | 52.69247 | -10.49681 | 38143 ft | 457 kts | 278° |
| 2026-05-05 13:07 | 52.70157 | -10.60106 | 38144 ft | 457 kts | 278° |
| 2026-05-05 13:07 | 52.71048 | -10.70418 | 38146 ft | 457 kts | 278° |
| 2026-05-05 13:08 | 52.71937 | -10.80814 | 38147 ft | 457 kts | 278° |
| 2026-05-05 13:08 | 52.72817 | -10.91204 | 38152 ft | 457 kts | 278° |
| 2026-05-05 13:09 | 52.73687 | -11.01600 | 38151 ft | 457 kts | 278° |
| 2026-05-05 13:09 | 52.74542 | -11.11933 | 38157 ft | 456 kts | 278° |
| 2026-05-05 13:10 | 52.75392 | -11.22315 | 38157 ft | 456 kts | 278° |
| 2026-05-05 13:10 | 52.76234 | -11.32704 | 38157 ft | 456 kts | 278° |
| 2026-05-05 13:11 | 52.77067 | -11.43098 | 38163 ft | 456 kts | 278° |
| 2026-05-05 13:11 | 52.77884 | -11.53414 | 38163 ft | 456 kts | 278° |
| 2026-05-05 13:12 | 52.78698 | -11.63816 | 38166 ft | 456 kts | 277° |
| 2026-05-05 13:12 | 52.79503 | -11.74218 | 38163 ft | 456 kts | 277° |
| 2026-05-05 13:13 | 52.80299 | -11.84623 | 38167 ft | 456 kts | 277° |
| 2026-05-05 13:13 | 52.81080 | -11.94962 | 38168 ft | 456 kts | 277° |
| 2026-05-05 13:14 | 52.81858 | -12.05376 | 38168 ft | 456 kts | 277° |
| 2026-05-05 13:14 | 52.82627 | -12.15793 | 38171 ft | 456 kts | 277° |
| 2026-05-05 13:15 | 52.83384 | -12.26202 | 38177 ft | 455 kts | 277° |
| 2026-05-05 13:15 | 52.84134 | -12.36608 | 38179 ft | 455 kts | 277° |
| 2026-05-05 13:16 | 52.84869 | -12.46948 | 38183 ft | 455 kts | 277° |
| 2026-05-05 13:16 | 52.85600 | -12.57355 | 38182 ft | 455 kts | 277° |
| 2026-05-05 13:17 | 52.86322 | -12.67775 | 38182 ft | 455 kts | 277° |
| 2026-05-05 13:17 | 52.87034 | -12.78194 | 38186 ft | 455 kts | 277° |
| 2026-05-05 13:18 | 52.87733 | -12.88539 | 38190 ft | 454 kts | 277° |
| 2026-05-05 13:18 | 52.88427 | -12.98950 | 38190 ft | 454 kts | 277° |
| 2026-05-05 13:19 | 52.89111 | -13.09366 | 38190 ft | 454 kts | 277° |
| 2026-05-05 13:19 | 52.89787 | -13.19790 | 38190 ft | 454 kts | 277° |
| 2026-05-05 13:20 | 52.90448 | -13.30141 | 38198 ft | 454 kts | 277° |
| 2026-05-05 13:20 | 52.91104 | -13.40546 | 38194 ft | 453 kts | 276° |
| 2026-05-05 13:21 | 52.91751 | -13.50956 | 38196 ft | 453 kts | 276° |
| 2026-05-05 13:21 | 52.92389 | -13.61370 | 38198 ft | 453 kts | 276° |
| 2026-05-05 13:22 | 52.93014 | -13.71717 | 38203 ft | 453 kts | 276° |
| 2026-05-05 13:22 | 52.93633 | -13.82127 | 38208 ft | 453 kts | 276° |
| 2026-05-05 13:23 | 52.94242 | -13.92531 | 38204 ft | 452 kts | 276° |
| 2026-05-05 13:23 | 52.94842 | -14.02926 | 38203 ft | 452 kts | 276° |
| 2026-05-05 13:24 | 52.95429 | -14.13256 | 38202 ft | 452 kts | 276° |
| 2026-05-05 13:24 | 52.96011 | -14.23663 | 38202 ft | 452 kts | 276° |
| 2026-05-05 13:25 | 52.96584 | -14.34068 | 38211 ft | 452 kts | 276° |
| 2026-05-05 13:25 | 52.97147 | -14.44474 | 38211 ft | 452 kts | 276° |
| 2026-05-05 13:26 | 52.97698 | -14.54803 | 38207 ft | 452 kts | 276° |
| 2026-05-05 13:26 | 52.98243 | -14.65204 | 38209 ft | 452 kts | 276° |
| 2026-05-05 13:27 | 52.98779 | -14.75616 | 38210 ft | 452 kts | 275° |
| 2026-05-05 13:27 | 52.99300 | -14.85950 | 38217 ft | 452 kts | 276° |
| 2026-05-05 13:28 | 53.00129 | -14.96298 | 38212 ft | 452 kts | 281° |
| 2026-05-05 13:28 | 53.01590 | -15.06449 | 38216 ft | 451 kts | 287° |
| 2026-05-05 13:29 | 53.03631 | -15.16319 | 38224 ft | 451 kts | 290° |
| 2026-05-05 13:29 | 53.05805 | -15.26037 | 38216 ft | 451 kts | 290° |
| 2026-05-05 13:30 | 53.07992 | -15.35833 | 38220 ft | 451 kts | 290° |
| 2026-05-05 13:30 | 53.10167 | -15.45634 | 38222 ft | 451 kts | 290° |
| 2026-05-05 13:31 | 53.12334 | -15.55449 | 38223 ft | 451 kts | 290° |
| 2026-05-05 13:31 | 53.14477 | -15.65208 | 38218 ft | 451 kts | 290° |
| 2026-05-05 13:32 | 53.16626 | -15.75034 | 38219 ft | 451 kts | 290° |
| 2026-05-05 13:32 | 53.18777 | -15.84929 | 38631 ft | 453 kts | 290° |
| 2026-05-05 13:33 | 53.19848 | -15.89873 | 38935 ft | 452 kts | 290° |
| 2026-05-05 13:33 | 53.20916 | -15.94815 | 39138 ft | 453 kts | 290° |
| 2026-05-05 13:33 | 53.23039 | -16.04664 | 39219 ft | 454 kts | 290° |
| 2026-05-05 13:34 | 53.25169 | -16.14592 | 39227 ft | 454 kts | 290° |
| 2026-05-05 13:34 | 53.27290 | -16.24529 | 39228 ft | 454 kts | 290° |
| 2026-05-05 13:35 | 53.29404 | -16.34483 | 39227 ft | 454 kts | 290° |
| 2026-05-05 13:35 | 53.31494 | -16.44377 | 39227 ft | 454 kts | 290° |
| 2026-05-05 13:36 | 53.33592 | -16.54352 | 39229 ft | 454 kts | 290° |
| 2026-05-05 13:36 | 53.35679 | -16.64329 | 39231 ft | 454 kts | 290° |
| 2026-05-05 13:37 | 53.37761 | -16.74329 | 39229 ft | 454 kts | 289° |
| 2026-05-05 13:37 | 53.39817 | -16.84255 | 39230 ft | 454 kts | 289° |
| 2026-05-05 13:38 | 53.41881 | -16.94267 | 39233 ft | 454 kts | 289° |
| 2026-05-05 13:38 | 53.43935 | -17.04284 | 39236 ft | 454 kts | 289° |
| 2026-05-05 13:39 | 53.45982 | -17.14315 | 39236 ft | 454 kts | 289° |
| 2026-05-05 13:39 | 53.48020 | -17.24354 | 39236 ft | 454 kts | 289° |
| 2026-05-05 13:40 | 53.50036 | -17.34339 | 39232 ft | 454 kts | 289° |
| 2026-05-05 13:40 | 53.52057 | -17.44392 | 39238 ft | 453 kts | 289° |
| 2026-05-05 13:41 | 53.54069 | -17.54458 | 39236 ft | 454 kts | 289° |
| 2026-05-05 13:41 | 53.56073 | -17.64530 | 39239 ft | 454 kts | 289° |
| 2026-05-05 13:42 | 53.58055 | -17.74550 | 39243 ft | 454 kts | 289° |
| 2026-05-05 13:42 | 53.60043 | -17.84647 | 39242 ft | 454 kts | 289° |
| 2026-05-05 13:43 | 53.62020 | -17.94747 | 39237 ft | 454 kts | 289° |
| 2026-05-05 13:43 | 53.63991 | -18.04864 | 39251 ft | 454 kts | 289° |
| 2026-05-05 13:44 | 53.65938 | -18.14915 | 39243 ft | 454 kts | 289° |
| 2026-05-05 13:44 | 53.67893 | -18.25052 | 39244 ft | 454 kts | 289° |
| 2026-05-05 13:45 | 53.69838 | -18.35197 | 39247 ft | 454 kts | 289° |
| 2026-05-05 13:45 | 53.71776 | -18.45357 | 39247 ft | 454 kts | 288° |
| 2026-05-05 13:46 | 53.73690 | -18.55447 | 39233 ft | 454 kts | 288° |
| 2026-05-05 13:46 | 53.75609 | -18.65621 | 39241 ft | 454 kts | 288° |
| 2026-05-05 13:47 | 53.77520 | -18.75802 | 39246 ft | 454 kts | 288° |
| 2026-05-05 13:47 | 53.79422 | -18.85994 | 39249 ft | 454 kts | 288° |
| 2026-05-05 13:48 | 53.81303 | -18.96127 | 39249 ft | 454 kts | 288° |
| 2026-05-05 13:48 | 53.83187 | -19.06331 | 39249 ft | 454 kts | 288° |
| 2026-05-05 13:49 | 53.85063 | -19.16549 | 39252 ft | 454 kts | 288° |
| 2026-05-05 13:49 | 53.86930 | -19.26775 | 39249 ft | 454 kts | 288° |
| 2026-05-05 13:50 | 53.88776 | -19.36939 | 39249 ft | 453 kts | 288° |
| 2026-05-05 13:50 | 53.90624 | -19.47175 | 39252 ft | 453 kts | 288° |
| 2026-05-05 13:51 | 53.92464 | -19.57423 | 39257 ft | 454 kts | 288° |
| 2026-05-05 13:51 | 53.94297 | -19.67691 | 39255 ft | 454 kts | 288° |
| 2026-05-05 13:52 | 53.96122 | -19.77963 | 39256 ft | 454 kts | 288° |
| 2026-05-05 13:52 | 53.97922 | -19.88172 | 39248 ft | 454 kts | 288° |
| 2026-05-05 13:53 | 53.99458 | -19.98592 | 39255 ft | 455 kts | 282° |
| 2026-05-05 13:53 | 54.00346 | -20.09266 | 39257 ft | 456 kts | 276° |
| 2026-05-05 13:54 | 54.00801 | -20.20039 | 39264 ft | 456 kts | 276° |
| 2026-05-05 13:54 | 54.01221 | -20.30751 | 39263 ft | 456 kts | 276° |
| 2026-05-05 13:55 | 54.01636 | -20.41535 | 39260 ft | 457 kts | 275° |
| 2026-05-05 13:55 | 54.02040 | -20.52328 | 39261 ft | 457 kts | 276° |
| 2026-05-05 13:56 | 54.02437 | -20.63138 | 39263 ft | 457 kts | 276° |
| 2026-05-05 13:56 | 54.02824 | -20.73883 | 39266 ft | 458 kts | 276° |
| 2026-05-05 13:57 | 54.03204 | -20.84706 | 39262 ft | 458 kts | 275° |
| 2026-05-05 13:57 | 54.03573 | -20.95531 | 39263 ft | 458 kts | 275° |
| 2026-05-05 13:58 | 54.03931 | -21.06364 | 39258 ft | 458 kts | 275° |
| 2026-05-05 13:58 | 54.04281 | -21.17208 | 39264 ft | 458 kts | 275° |
| 2026-05-05 13:59 | 54.04787 | -21.33407 | 39266 ft | 459 kts | 275° |
| 2026-05-05 14:00 | 54.05272 | -21.49687 | 39270 ft | 458 kts | 275° |
| 2026-05-05 14:00 | 54.05583 | -21.60540 | 39259 ft | 458 kts | 275° |
| 2026-05-05 14:01 | 54.05882 | -21.71328 | 39269 ft | 459 kts | 275° |
| 2026-05-05 14:01 | 54.06174 | -21.82194 | 39271 ft | 459 kts | 275° |
| 2026-05-05 14:02 | 54.06456 | -21.93060 | 39268 ft | 459 kts | 275° |
| 2026-05-05 14:02 | 54.06729 | -22.03930 | 39268 ft | 459 kts | 275° |
| 2026-05-05 14:03 | 54.06989 | -22.14728 | 39274 ft | 459 kts | 275° |
| 2026-05-05 14:03 | 54.07242 | -22.25597 | 39274 ft | 459 kts | 275° |
| 2026-05-05 14:04 | 54.07485 | -22.36469 | 39277 ft | 459 kts | 275° |
| 2026-05-05 14:04 | 54.07718 | -22.47350 | 39277 ft | 459 kts | 274° |
| 2026-05-05 14:05 | 54.07940 | -22.58152 | 39277 ft | 459 kts | 274° |
| 2026-05-05 14:05 | 54.08154 | -22.69036 | 39277 ft | 459 kts | 274° |
| 2026-05-05 14:06 | 54.08356 | -22.79913 | 39272 ft | 459 kts | 274° |
| 2026-05-05 14:06 | 54.08551 | -22.90799 | 39280 ft | 459 kts | 274° |
| 2026-05-05 14:07 | 54.08735 | -23.01687 | 39278 ft | 459 kts | 274° |
| 2026-05-05 14:07 | 54.08908 | -23.12498 | 39275 ft | 459 kts | 274° |
| 2026-05-05 14:08 | 54.09073 | -23.23384 | 39278 ft | 459 kts | 274° |
| 2026-05-05 14:08 | 54.09228 | -23.34275 | 39266 ft | 459 kts | 274° |
| 2026-05-05 14:09 | 54.09371 | -23.45096 | 39285 ft | 459 kts | 274° |
| 2026-05-05 14:09 | 54.09507 | -23.55981 | 39286 ft | 459 kts | 274° |
| 2026-05-05 14:10 | 54.09633 | -23.66864 | 39284 ft | 459 kts | 274° |
| 2026-05-05 14:10 | 54.09749 | -23.77750 | 39285 ft | 459 kts | 274° |
| 2026-05-05 14:11 | 54.09854 | -23.88569 | 39285 ft | 459 kts | 274° |
| 2026-05-05 14:11 | 54.09949 | -23.99444 | 39280 ft | 458 kts | 274° |
| 2026-05-05 14:12 | 54.10035 | -24.10331 | 39285 ft | 458 kts | 274° |
| 2026-05-05 14:12 | 54.10111 | -24.21201 | 39292 ft | 458 kts | 274° |
| 2026-05-05 14:13 | 54.10177 | -24.32077 | 39292 ft | 458 kts | 274° |
| 2026-05-05 14:13 | 54.10234 | -24.42884 | 39298 ft | 458 kts | 274° |
| 2026-05-05 14:14 | 54.10280 | -24.53759 | 39276 ft | 458 kts | 274° |
| 2026-05-05 14:14 | 54.10317 | -24.64618 | 39292 ft | 458 kts | 273° |
| 2026-05-05 14:15 | 54.10345 | -24.75473 | 39288 ft | 458 kts | 273° |
| 2026-05-05 14:15 | 54.10363 | -24.86260 | 39297 ft | 458 kts | 273° |
| 2026-05-05 14:16 | 54.10370 | -24.97122 | 39294 ft | 458 kts | 273° |
| 2026-05-05 14:16 | 54.10368 | -25.07980 | 39281 ft | 458 kts | 273° |
| 2026-05-05 14:17 | 54.10356 | -25.18825 | 39292 ft | 457 kts | 273° |
| 2026-05-05 14:17 | 54.10335 | -25.29594 | 39299 ft | 457 kts | 273° |
| 2026-05-05 14:18 | 54.10304 | -25.40431 | 39302 ft | 457 kts | 273° |
| 2026-05-05 14:18 | 54.10263 | -25.51267 | 39305 ft | 457 kts | 273° |
| 2026-05-05 14:19 | 54.10212 | -25.62106 | 39300 ft | 457 kts | 273° |
| 2026-05-05 14:19 | 54.10152 | -25.72861 | 39292 ft | 456 kts | 272° |
| 2026-05-05 14:20 | 54.10082 | -25.83680 | 39299 ft | 456 kts | 272° |
| 2026-05-05 14:20 | 54.10003 | -25.94490 | 39301 ft | 456 kts | 272° |
| 2026-05-05 14:21 | 54.09913 | -26.05302 | 39304 ft | 456 kts | 272° |
| 2026-05-05 14:21 | 54.09815 | -26.16045 | 39299 ft | 456 kts | 272° |
| 2026-05-05 14:22 | 54.09706 | -26.26857 | 39293 ft | 455 kts | 272° |
| 2026-05-05 14:22 | 54.09587 | -26.37649 | 39298 ft | 455 kts | 272° |
| 2026-05-05 14:23 | 54.09460 | -26.48432 | 39311 ft | 455 kts | 272° |
| 2026-05-05 14:23 | 54.09324 | -26.59152 | 39305 ft | 455 kts | 272° |
| 2026-05-05 14:24 | 54.09177 | -26.69934 | 39309 ft | 455 kts | 272° |
| 2026-05-05 14:24 | 54.09021 | -26.80726 | 39314 ft | 455 kts | 272° |
| 2026-05-05 14:25 | 54.08853 | -26.91529 | 39304 ft | 455 kts | 272° |
| 2026-05-05 14:25 | 54.08679 | -27.02253 | 39314 ft | 455 kts | 272° |
| 2026-05-05 14:26 | 54.08493 | -27.13053 | 39311 ft | 455 kts | 272° |
| 2026-05-05 14:26 | 54.08298 | -27.23846 | 39311 ft | 455 kts | 272° |
| 2026-05-05 14:27 | 54.08093 | -27.34644 | 39314 ft | 455 kts | 271° |
| 2026-05-05 14:27 | 54.07878 | -27.45367 | 39298 ft | 456 kts | 272° |
| 2026-05-05 14:28 | 54.07654 | -27.56172 | 39312 ft | 456 kts | 271° |
| 2026-05-05 14:28 | 54.07420 | -27.66980 | 39315 ft | 456 kts | 271° |
| 2026-05-05 14:29 | 54.07176 | -27.77786 | 39316 ft | 456 kts | 271° |
| 2026-05-05 14:29 | 54.06924 | -27.88521 | 39308 ft | 456 kts | 271° |
| 2026-05-05 14:30 | 54.06661 | -27.99328 | 39315 ft | 456 kts | 271° |
| 2026-05-05 14:30 | 54.06388 | -28.10142 | 39318 ft | 457 kts | 271° |
| 2026-05-05 14:31 | 54.06105 | -28.20972 | 39318 ft | 457 kts | 271° |
| 2026-05-05 14:31 | 54.05813 | -28.31733 | 39318 ft | 457 kts | 271° |
| 2026-05-05 14:32 | 54.05510 | -28.42563 | 39317 ft | 457 kts | 271° |
| 2026-05-05 14:32 | 54.05197 | -28.53392 | 39317 ft | 457 kts | 271° |
| 2026-05-05 14:33 | 54.04874 | -28.64212 | 39309 ft | 457 kts | 271° |
| 2026-05-05 14:33 | 54.04543 | -28.75021 | 39315 ft | 457 kts | 271° |
| 2026-05-05 14:34 | 54.04204 | -28.85761 | 39320 ft | 457 kts | 271° |
| 2026-05-05 14:34 | 54.03853 | -28.96570 | 39320 ft | 457 kts | 271° |
| 2026-05-05 14:35 | 54.03492 | -29.07382 | 39320 ft | 457 kts | 270° |
| 2026-05-05 14:35 | 54.03123 | -29.18184 | 39306 ft | 456 kts | 270° |
| 2026-05-05 14:36 | 54.02747 | -29.28898 | 39316 ft | 456 kts | 270° |
| 2026-05-05 14:36 | 54.02357 | -29.39677 | 39316 ft | 456 kts | 270° |
| 2026-05-05 14:37 | 54.01958 | -29.50452 | 39312 ft | 456 kts | 270° |
| 2026-05-05 14:37 | 54.01550 | -29.61220 | 39309 ft | 456 kts | 270° |
| 2026-05-05 14:38 | 54.01135 | -29.71921 | 39297 ft | 456 kts | 270° |
| 2026-05-05 14:38 | 54.00709 | -29.82675 | 39311 ft | 455 kts | 269° |
| 2026-05-05 14:39 | 54.00272 | -29.93417 | 39310 ft | 455 kts | 270° |
| 2026-05-05 14:39 | 54.00194 | -30.04148 | 39309 ft | 452 kts | 276° |
| 2026-05-05 14:40 | 54.00588 | -30.14745 | 39309 ft | 451 kts | 277° |
| 2026-05-05 14:40 | 54.01018 | -30.25414 | 39309 ft | 452 kts | 277° |
| 2026-05-05 14:41 | 54.01439 | -30.36080 | 39296 ft | 451 kts | 276° |
| 2026-05-05 14:41 | 54.01852 | -30.46757 | 39306 ft | 452 kts | 276° |
| 2026-05-05 14:42 | 54.02247 | -30.57437 | 39306 ft | 452 kts | 276° |
| 2026-05-05 14:42 | 54.02631 | -30.68055 | 39306 ft | 452 kts | 276° |
| 2026-05-05 14:43 | 54.03009 | -30.78740 | 39299 ft | 452 kts | 276° |
| 2026-05-05 14:43 | 54.03378 | -30.89434 | 39298 ft | 452 kts | 276° |
| 2026-05-05 14:44 | 54.03742 | -31.00123 | 39288 ft | 452 kts | 275° |
| 2026-05-05 14:44 | 54.04093 | -31.10754 | 39292 ft | 453 kts | 275° |
| 2026-05-05 14:45 | 54.04432 | -31.21468 | 39298 ft | 453 kts | 275° |
| 2026-05-05 14:45 | 54.04765 | -31.32192 | 39295 ft | 453 kts | 274° |
| 2026-05-05 14:46 | 54.05087 | -31.42929 | 39291 ft | 454 kts | 274° |
| 2026-05-05 14:46 | 54.05398 | -31.53596 | 39292 ft | 454 kts | 274° |
| 2026-05-05 14:47 | 54.05704 | -31.64337 | 39281 ft | 454 kts | 274° |
| 2026-05-05 14:47 | 54.06001 | -31.75083 | 39293 ft | 454 kts | 273° |
| 2026-05-05 14:48 | 54.06282 | -31.85825 | 39278 ft | 453 kts | 273° |
| 2026-05-05 14:48 | 54.06556 | -31.96503 | 39277 ft | 454 kts | 273° |
| 2026-05-05 14:49 | 54.06821 | -32.07253 | 39286 ft | 454 kts | 273° |
| 2026-05-05 14:49 | 54.07077 | -32.18005 | 39280 ft | 454 kts | 273° |
| 2026-05-05 14:50 | 54.07330 | -32.28768 | 39270 ft | 455 kts | 272° |
| 2026-05-05 14:50 | 54.07568 | -32.39540 | 39270 ft | 454 kts | 272° |
| 2026-05-05 14:51 | 54.07792 | -32.50253 | 39283 ft | 456 kts | 272° |
| 2026-05-05 14:51 | 54.08008 | -32.61033 | 39265 ft | 453 kts | 272° |
| 2026-05-05 14:52 | 54.08217 | -32.71801 | 39264 ft | 455 kts | 272° |
| 2026-05-05 14:52 | 54.08416 | -32.82588 | 39259 ft | 454 kts | 272° |
| 2026-05-05 14:53 | 54.08611 | -32.93291 | 39254 ft | 455 kts | 271° |
| 2026-05-05 14:53 | 54.08793 | -33.04115 | 39248 ft | 456 kts | 270° |
| 2026-05-05 14:54 | 54.08959 | -33.14918 | 39249 ft | 456 kts | 270° |
| 2026-05-05 14:54 | 54.09115 | -33.25741 | 39254 ft | 456 kts | 270° |
| 2026-05-05 14:55 | 54.09265 | -33.36543 | 39238 ft | 455 kts | 270° |
| 2026-05-05 14:55 | 54.09405 | -33.47283 | 39251 ft | 457 kts | 270° |
| 2026-05-05 14:56 | 54.09548 | -33.58108 | 39239 ft | 457 kts | 269° |
| 2026-05-05 14:56 | 54.09666 | -33.69020 | 39236 ft | 461 kts | 269° |
| 2026-05-05 14:57 | 54.09781 | -33.79961 | 39238 ft | 461 kts | 269° |
| 2026-05-05 14:57 | 54.09881 | -33.90814 | 39239 ft | 461 kts | 269° |
| 2026-05-05 14:58 | 54.09978 | -34.01756 | 39245 ft | 461 kts | 268° |
| 2026-05-05 14:58 | 54.10061 | -34.12717 | 39226 ft | 463 kts | 269° |
| 2026-05-05 14:59 | 54.10138 | -34.23701 | 39226 ft | 463 kts | 268° |
| 2026-05-05 14:59 | 54.10201 | -34.34681 | 39219 ft | 463 kts | 269° |
| 2026-05-05 15:00 | 54.10248 | -34.43815 | 39218 ft | 463 kts | 269° |
| 2026-05-05 15:00 | 54.10299 | -34.56575 | 39219 ft | 462 kts | 268° |
| 2026-05-05 15:01 | 54.10331 | -34.67561 | 39207 ft | 463 kts | 268° |
| 2026-05-05 15:01 | 54.10356 | -34.78540 | 39207 ft | 463 kts | 268° |
| 2026-05-05 15:02 | 54.10374 | -34.89451 | 39198 ft | 463 kts | 267° |
| 2026-05-05 15:02 | 54.10376 | -35.00438 | 39197 ft | 464 kts | 267° |
| 2026-05-05 15:03 | 54.10366 | -35.11460 | 39186 ft | 465 kts | 267° |
| 2026-05-05 15:03 | 54.10349 | -35.22491 | 39182 ft | 465 kts | 266° |
| 2026-05-05 15:04 | 54.10323 | -35.33441 | 39182 ft | 464 kts | 266° |
| 2026-05-05 15:04 | 54.10288 | -35.44460 | 39173 ft | 464 kts | 266° |
| 2026-05-05 15:05 | 54.10218 | -35.60969 | 39166 ft | 463 kts | 266° |
| 2026-05-05 15:06 | 54.10156 | -35.71875 | 39161 ft | 463 kts | 266° |
| 2026-05-05 15:06 | 54.10085 | -35.82854 | 39161 ft | 463 kts | 266° |
| 2026-05-05 15:07 | 54.10006 | -35.93841 | 39155 ft | 464 kts | 266° |
| 2026-05-05 15:07 | 54.09915 | -36.04853 | 39152 ft | 464 kts | 266° |
| 2026-05-05 15:08 | 54.09813 | -36.15795 | 39154 ft | 464 kts | 266° |
| 2026-05-05 15:08 | 54.09703 | -36.26792 | 39147 ft | 463 kts | 266° |
| 2026-05-05 15:09 | 54.09583 | -36.37775 | 39133 ft | 463 kts | 265° |
| 2026-05-05 15:09 | 54.09453 | -36.48762 | 39133 ft | 463 kts | 265° |
| 2026-05-05 15:10 | 54.09313 | -36.59670 | 39128 ft | 463 kts | 265° |
| 2026-05-05 15:10 | 54.09163 | -36.70654 | 39124 ft | 463 kts | 265° |
| 2026-05-05 15:11 | 54.09002 | -36.81646 | 39136 ft | 465 kts | 265° |
| 2026-05-05 15:11 | 54.08831 | -36.92702 | 39118 ft | 466 kts | 265° |
| 2026-05-05 15:12 | 54.08651 | -37.03693 | 39110 ft | 467 kts | 265° |
| 2026-05-05 15:12 | 54.08459 | -37.14751 | 39111 ft | 466 kts | 265° |
| 2026-05-05 15:13 | 54.08257 | -37.25811 | 39111 ft | 466 kts | 265° |
| 2026-05-05 15:13 | 54.08045 | -37.36870 | 39113 ft | 466 kts | 265° |
| 2026-05-05 15:14 | 54.07824 | -37.47855 | 39113 ft | 466 kts | 265° |
| 2026-05-05 15:14 | 54.07592 | -37.58912 | 39105 ft | 466 kts | 265° |
| 2026-05-05 15:15 | 54.07349 | -37.69964 | 39112 ft | 466 kts | 264° |
| 2026-05-05 15:15 | 54.07097 | -37.81037 | 39104 ft | 468 kts | 264° |
| 2026-05-05 15:16 | 54.06835 | -37.92055 | 39097 ft | 468 kts | 264° |
| 2026-05-05 15:16 | 54.06560 | -38.03162 | 39098 ft | 469 kts | 264° |
| 2026-05-05 15:17 | 54.06277 | -38.14244 | 39099 ft | 467 kts | 264° |
| 2026-05-05 15:17 | 54.05984 | -38.25292 | 39096 ft | 466 kts | 264° |
| 2026-05-05 15:18 | 54.05682 | -38.36268 | 39103 ft | 466 kts | 264° |
| 2026-05-05 15:18 | 54.05369 | -38.47307 | 39091 ft | 466 kts | 264° |
| 2026-05-05 15:19 | 54.05045 | -38.58344 | 39093 ft | 466 kts | 264° |
| 2026-05-05 15:19 | 54.04711 | -38.69398 | 39120 ft | 468 kts | 263° |
| 2026-05-05 15:20 | 54.04368 | -38.80475 | 39101 ft | 468 kts | 263° |
| 2026-05-05 15:20 | 54.04015 | -38.91465 | 39095 ft | 468 kts | 263° |
| 2026-05-05 15:21 | 54.03650 | -39.02522 | 39100 ft | 468 kts | 263° |
| 2026-05-05 15:21 | 54.03275 | -39.13585 | 39098 ft | 468 kts | 263° |
| 2026-05-05 15:22 | 54.02890 | -39.24644 | 39090 ft | 468 kts | 263° |
| 2026-05-05 15:22 | 54.02498 | -39.35623 | 39098 ft | 467 kts | 263° |
| 2026-05-05 15:23 | 54.02094 | -39.46670 | 39095 ft | 467 kts | 263° |
| 2026-05-05 15:23 | 54.01678 | -39.57715 | 39099 ft | 468 kts | 263° |
| 2026-05-05 15:24 | 54.01252 | -39.68786 | 39093 ft | 469 kts | 262° |
| 2026-05-05 15:24 | 54.00818 | -39.79795 | 39093 ft | 469 kts | 262° |
| 2026-05-05 15:25 | 54.00371 | -39.90868 | 39087 ft | 469 kts | 262° |
| 2026-05-05 15:25 | 53.99904 | -40.01944 | 39086 ft | 469 kts | 262° |
| 2026-05-05 15:26 | 53.99281 | -40.12989 | 39087 ft | 469 kts | 261° |
| 2026-05-05 15:26 | 53.98627 | -40.23946 | 39085 ft | 469 kts | 261° |
| 2026-05-05 15:27 | 53.97967 | -40.34975 | 39076 ft | 469 kts | 261° |
| 2026-05-05 15:27 | 53.97302 | -40.46008 | 39078 ft | 468 kts | 261° |
| 2026-05-05 15:28 | 53.96629 | -40.57054 | 39086 ft | 470 kts | 260° |
| 2026-05-05 15:28 | 53.95944 | -40.68118 | 39076 ft | 470 kts | 260° |
| 2026-05-05 15:29 | 53.95254 | -40.79099 | 39072 ft | 470 kts | 260° |
| 2026-05-05 15:29 | 53.94549 | -40.90155 | 39072 ft | 470 kts | 260° |
| 2026-05-05 15:30 | 53.93834 | -41.01209 | 39074 ft | 470 kts | 260° |
| 2026-05-05 15:30 | 53.93110 | -41.12255 | 39066 ft | 470 kts | 260° |
| 2026-05-05 15:31 | 53.92380 | -41.23216 | 39080 ft | 470 kts | 260° |
| 2026-05-05 15:31 | 53.91635 | -41.34250 | 39068 ft | 470 kts | 260° |
| 2026-05-05 15:32 | 53.90881 | -41.45276 | 39065 ft | 471 kts | 259° |
| 2026-05-05 15:32 | 53.90114 | -41.56330 | 39055 ft | 472 kts | 259° |
| 2026-05-05 15:33 | 53.89341 | -41.67324 | 39054 ft | 472 kts | 259° |
| 2026-05-05 15:33 | 53.88554 | -41.78371 | 39051 ft | 472 kts | 259° |
| 2026-05-05 15:34 | 53.87757 | -41.89421 | 39053 ft | 471 kts | 259° |
| 2026-05-05 15:34 | 53.86950 | -42.00454 | 39045 ft | 471 kts | 259° |
| 2026-05-05 15:35 | 53.86139 | -42.11401 | 39043 ft | 471 kts | 259° |
| 2026-05-05 15:35 | 53.85312 | -42.22421 | 39030 ft | 471 kts | 259° |
| 2026-05-05 15:36 | 53.84475 | -42.33437 | 39030 ft | 471 kts | 259° |
| 2026-05-05 15:36 | 53.83628 | -42.44439 | 39032 ft | 471 kts | 259° |
| 2026-05-05 15:37 | 53.82771 | -42.55444 | 39029 ft | 470 kts | 259° |
| 2026-05-05 15:37 | 53.81911 | -42.66357 | 39025 ft | 470 kts | 259° |
| 2026-05-05 15:38 | 53.81036 | -42.77340 | 39013 ft | 470 kts | 258° |
| 2026-05-05 15:38 | 53.80149 | -42.88321 | 39020 ft | 470 kts | 258° |
| 2026-05-05 15:39 | 53.79254 | -42.99286 | 39009 ft | 470 kts | 258° |
| 2026-05-05 15:39 | 53.78354 | -43.10178 | 39026 ft | 470 kts | 258° |
| 2026-05-05 15:40 | 53.77440 | -43.21120 | 39014 ft | 469 kts | 258° |
| 2026-05-05 15:40 | 53.76517 | -43.32054 | 39011 ft | 470 kts | 258° |
| 2026-05-05 15:41 | 53.75579 | -43.43030 | 39003 ft | 471 kts | 258° |
| 2026-05-05 15:41 | 53.74630 | -43.54012 | 38997 ft | 471 kts | 258° |
| 2026-05-05 15:42 | 53.73678 | -43.64913 | 38997 ft | 471 kts | 258° |
| 2026-05-05 15:42 | 53.72712 | -43.75867 | 38987 ft | 470 kts | 258° |
| 2026-05-05 15:43 | 53.71738 | -43.86782 | 38979 ft | 469 kts | 258° |
| 2026-05-05 15:43 | 53.70754 | -43.97682 | 38978 ft | 469 kts | 258° |
| 2026-05-05 15:44 | 53.69761 | -44.08579 | 38969 ft | 469 kts | 258° |
| 2026-05-05 15:44 | 53.68766 | -44.19395 | 38970 ft | 469 kts | 257° |
| 2026-05-05 15:45 | 53.67750 | -44.30303 | 38989 ft | 471 kts | 257° |
| 2026-05-05 15:45 | 53.66724 | -44.41214 | 38967 ft | 470 kts | 257° |
| 2026-05-05 15:46 | 53.65865 | -44.50279 | 38950 ft | 470 kts | 257° |
| 2026-05-05 15:46 | 53.64651 | -44.62954 | 38947 ft | 470 kts | 257° |
| 2026-05-05 15:47 | 53.63596 | -44.73848 | 38940 ft | 470 kts | 257° |
| 2026-05-05 15:47 | 53.62531 | -44.84734 | 38927 ft | 470 kts | 257° |
| 2026-05-05 15:48 | 53.61639 | -44.93772 | 38933 ft | 470 kts | 257° |
| 2026-05-05 15:48 | 53.60382 | -45.06393 | 38924 ft | 469 kts | 257° |
| 2026-05-05 15:49 | 53.59290 | -45.17236 | 38925 ft | 469 kts | 257° |
| 2026-05-05 15:49 | 53.58186 | -45.28095 | 38915 ft | 470 kts | 257° |
| 2026-05-05 15:50 | 53.57261 | -45.37127 | 38908 ft | 471 kts | 257° |
| 2026-05-05 15:50 | 53.56138 | -45.47997 | 38898 ft | 471 kts | 257° |
| 2026-05-05 15:51 | 53.54820 | -45.60605 | 38888 ft | 470 kts | 257° |
| 2026-05-05 15:51 | 53.53864 | -45.69682 | 38884 ft | 470 kts | 257° |
| 2026-05-05 15:52 | 53.52722 | -45.80433 | 38881 ft | 470 kts | 257° |
| 2026-05-05 15:52 | 53.51562 | -45.91255 | 38867 ft | 470 kts | 256° |
| 2026-05-05 15:53 | 53.50392 | -46.02068 | 38871 ft | 470 kts | 256° |
| 2026-05-05 15:53 | 53.49212 | -46.12880 | 38891 ft | 470 kts | 256° |
| 2026-05-05 15:54 | 53.48021 | -46.23692 | 38871 ft | 470 kts | 256° |
| 2026-05-05 15:54 | 53.46831 | -46.34420 | 38856 ft | 470 kts | 256° |
| 2026-05-05 15:55 | 53.45622 | -46.45206 | 38852 ft | 470 kts | 256° |
| 2026-05-05 15:55 | 53.44404 | -46.55987 | 38852 ft | 470 kts | 256° |
| 2026-05-05 15:56 | 53.43177 | -46.66761 | 38837 ft | 469 kts | 256° |
| 2026-05-05 15:56 | 53.41948 | -46.77453 | 38836 ft | 470 kts | 256° |
| 2026-05-05 15:57 | 53.40701 | -46.88215 | 38831 ft | 470 kts | 256° |
| 2026-05-05 15:57 | 53.39445 | -46.98966 | 38832 ft | 469 kts | 256° |
| 2026-05-05 15:58 | 53.38178 | -47.09732 | 38815 ft | 470 kts | 256° |
| 2026-05-05 15:58 | 53.36908 | -47.20427 | 38814 ft | 471 kts | 256° |
| 2026-05-05 15:59 | 53.35623 | -47.31188 | 38821 ft | 470 kts | 256° |
| 2026-05-05 15:59 | 53.34329 | -47.41917 | 38802 ft | 469 kts | 255° |
| 2026-05-05 16:00 | 53.33022 | -47.52635 | 38800 ft | 469 kts | 256° |
| 2026-05-05 16:00 | 53.31712 | -47.63333 | 38795 ft | 469 kts | 256° |
| 2026-05-05 16:01 | 53.30401 | -47.73964 | 38784 ft | 469 kts | 256° |
| 2026-05-05 16:01 | 53.29066 | -47.84654 | 38777 ft | 469 kts | 255° |
| 2026-05-05 16:02 | 53.27721 | -47.95330 | 38789 ft | 469 kts | 256° |
| 2026-05-05 16:02 | 53.26381 | -48.05929 | 38777 ft | 468 kts | 255° |
| 2026-05-05 16:03 | 53.25024 | -48.16597 | 38760 ft | 468 kts | 255° |
| 2026-05-05 16:03 | 53.23655 | -48.27245 | 38756 ft | 469 kts | 255° |
| 2026-05-05 16:04 | 53.22277 | -48.37885 | 38757 ft | 468 kts | 255° |
| 2026-05-05 16:04 | 53.20892 | -48.48518 | 38743 ft | 468 kts | 255° |
| 2026-05-05 16:05 | 53.19505 | -48.59061 | 38743 ft | 467 kts | 255° |
| 2026-05-05 16:05 | 53.18105 | -48.69629 | 38738 ft | 467 kts | 256° |
| 2026-05-05 16:06 | 53.16696 | -48.80201 | 38741 ft | 466 kts | 255° |
| 2026-05-05 16:06 | 53.15272 | -48.90796 | 38734 ft | 468 kts | 255° |
| 2026-05-05 16:07 | 53.13850 | -49.01314 | 38734 ft | 469 kts | 255° |
| 2026-05-05 16:07 | 53.12406 | -49.11906 | 38732 ft | 467 kts | 255° |
| 2026-05-05 16:08 | 53.10960 | -49.22459 | 38710 ft | 465 kts | 255° |
| 2026-05-05 16:08 | 53.09504 | -49.32982 | 38711 ft | 466 kts | 255° |
| 2026-05-05 16:09 | 53.08050 | -49.43422 | 38706 ft | 467 kts | 255° |
| 2026-05-05 16:09 | 53.06580 | -49.53941 | 38698 ft | 465 kts | 255° |
| 2026-05-05 16:10 | 53.05100 | -49.64442 | 38695 ft | 464 kts | 255° |
| 2026-05-05 16:10 | 53.03610 | -49.74915 | 38702 ft | 466 kts | 255° |
| 2026-05-05 16:11 | 53.02116 | -49.85323 | 38692 ft | 467 kts | 255° |
| 2026-05-05 16:12 | 52.98550 | -50.06004 | 38681 ft | 464 kts | 246° |
| 2026-05-05 16:13 | 52.92576 | -50.30812 | 38660 ft | 462 kts | 246° |
| 2026-05-05 16:13 | 52.90175 | -50.40720 | 38672 ft | 462 kts | 246° |
| 2026-05-05 16:14 | 52.85347 | -50.60465 | 38671 ft | 463 kts | 246° |
| 2026-05-05 16:15 | 52.80506 | -50.80085 | 38653 ft | 462 kts | 247° |
| 2026-05-05 16:16 | 52.75609 | -50.99786 | 38646 ft | 463 kts | 246° |
| 2026-05-05 16:17 | 52.71926 | -51.14474 | 38646 ft | 463 kts | 246° |
| 2026-05-05 16:18 | 52.68205 | -51.29199 | 38636 ft | 463 kts | 247° |
| 2026-05-05 16:19 | 52.64478 | -51.43880 | 38640 ft | 462 kts | 246° |
| 2026-05-05 16:19 | 52.60752 | -51.58453 | 38633 ft | 461 kts | 246° |
| 2026-05-05 16:20 | 52.55743 | -51.77884 | 38624 ft | 459 kts | 246° |
| 2026-05-05 16:22 | 52.49484 | -52.01940 | 38624 ft | 459 kts | 246° |
| 2026-05-05 16:23 | 52.44423 | -52.21207 | 38615 ft | 459 kts | 246° |
| 2026-05-05 16:23 | 52.40626 | -52.35556 | 38612 ft | 459 kts | 246° |
| 2026-05-05 16:24 | 52.38071 | -52.45157 | 38615 ft | 459 kts | 246° |
| 2026-05-05 16:25 | 52.34230 | -52.59522 | 38619 ft | 459 kts | 246° |
| 2026-05-05 16:25 | 52.30397 | -52.73759 | 38620 ft | 457 kts | 246° |
| 2026-05-05 16:26 | 52.25251 | -52.92749 | 38624 ft | 457 kts | 246° |
| 2026-05-05 16:27 | 52.22666 | -53.02238 | 38619 ft | 457 kts | 245° |
| 2026-05-05 16:27 | 52.20083 | -53.11661 | 38612 ft | 457 kts | 245° |
| 2026-05-05 16:28 | 52.17478 | -53.21132 | 38612 ft | 456 kts | 245° |
| 2026-05-05 16:28 | 52.14870 | -53.30577 | 38617 ft | 456 kts | 245° |
| 2026-05-05 16:29 | 52.12256 | -53.40005 | 38612 ft | 456 kts | 245° |
| 2026-05-05 16:29 | 52.09635 | -53.49421 | 38612 ft | 457 kts | 245° |
| 2026-05-05 16:30 | 52.07023 | -53.58764 | 38613 ft | 457 kts | 245° |
| 2026-05-05 16:30 | 52.04385 | -53.68164 | 38613 ft | 457 kts | 245° |
| 2026-05-05 16:31 | 52.01738 | -53.77562 | 38616 ft | 457 kts | 245° |
| 2026-05-05 16:31 | 51.99083 | -53.86951 | 38608 ft | 457 kts | 245° |
| 2026-05-05 16:32 | 51.96439 | -53.96262 | 38609 ft | 457 kts | 245° |
| 2026-05-05 16:32 | 51.93763 | -54.05638 | 38610 ft | 459 kts | 245° |
| 2026-05-05 16:33 | 51.91067 | -54.15055 | 38618 ft | 460 kts | 245° |
| 2026-05-05 16:33 | 51.88363 | -54.24473 | 38610 ft | 461 kts | 245° |
| 2026-05-05 16:34 | 51.85661 | -54.33837 | 38698 ft | 463 kts | 245° |
| 2026-05-05 16:34 | 51.84295 | -54.38558 | 38903 ft | 462 kts | 245° |
| 2026-05-05 16:34 | 51.82929 | -54.43270 | 39109 ft | 462 kts | 245° |
| 2026-05-05 16:35 | 51.81563 | -54.47966 | 39289 ft | 461 kts | 245° |
| 2026-05-05 16:35 | 51.80200 | -54.52665 | 39500 ft | 460 kts | 246° |
| 2026-05-05 16:35 | 51.78927 | -54.57406 | 39606 ft | 460 kts | 247° |
| 2026-05-05 16:35 | 51.77668 | -54.62155 | 39601 ft | 459 kts | 247° |
| 2026-05-05 16:36 | 51.75142 | -54.71644 | 39611 ft | 459 kts | 246° |
| 2026-05-05 16:36 | 51.72629 | -54.81047 | 39614 ft | 459 kts | 246° |
| 2026-05-05 16:37 | 51.70091 | -54.90508 | 39620 ft | 459 kts | 246° |
| 2026-05-05 16:37 | 51.67549 | -54.99947 | 39617 ft | 457 kts | 246° |
| 2026-05-05 16:38 | 51.65014 | -55.09340 | 39618 ft | 457 kts | 246° |
| 2026-05-05 16:38 | 51.62483 | -55.18649 | 39613 ft | 457 kts | 246° |
| 2026-05-05 16:39 | 51.59928 | -55.28015 | 39613 ft | 457 kts | 246° |
| 2026-05-05 16:39 | 51.57366 | -55.37372 | 39608 ft | 457 kts | 246° |
| 2026-05-05 16:40 | 51.54796 | -55.46721 | 39591 ft | 456 kts | 245° |
| 2026-05-05 16:40 | 51.52236 | -55.56000 | 39595 ft | 456 kts | 245° |
| 2026-05-05 16:41 | 51.49649 | -55.65338 | 39603 ft | 457 kts | 245° |
| 2026-05-05 16:41 | 51.47052 | -55.74672 | 39601 ft | 457 kts | 245° |
| 2026-05-05 16:42 | 51.44447 | -55.84000 | 39596 ft | 458 kts | 245° |
| 2026-05-05 16:42 | 51.41849 | -55.93252 | 39593 ft | 459 kts | 246° |
| 2026-05-05 16:43 | 51.39222 | -56.02561 | 39604 ft | 457 kts | 246° |
| 2026-05-05 16:43 | 51.36614 | -56.11799 | 39596 ft | 455 kts | 246° |
| 2026-05-05 16:44 | 51.34002 | -56.21021 | 39597 ft | 454 kts | 246° |
| 2026-05-05 16:44 | 51.31387 | -56.30209 | 39591 ft | 453 kts | 246° |
| 2026-05-05 16:45 | 51.28786 | -56.39315 | 39584 ft | 449 kts | 246° |
| 2026-05-05 16:45 | 51.26188 | -56.48366 | 39597 ft | 447 kts | 246° |
| 2026-05-05 16:46 | 51.23586 | -56.57395 | 39600 ft | 447 kts | 246° |
| 2026-05-05 16:46 | 51.20997 | -56.66346 | 39599 ft | 447 kts | 246° |
| 2026-05-05 16:47 | 51.18381 | -56.75358 | 39609 ft | 447 kts | 246° |
| 2026-05-05 16:47 | 51.15761 | -56.84350 | 39608 ft | 447 kts | 246° |
| 2026-05-05 16:48 | 51.13135 | -56.93339 | 39608 ft | 448 kts | 245° |
| 2026-05-05 16:48 | 51.10503 | -57.02308 | 39610 ft | 450 kts | 245° |
| 2026-05-05 16:49 | 51.07838 | -57.11342 | 39612 ft | 450 kts | 245° |
| 2026-05-05 16:49 | 51.05169 | -57.20360 | 39615 ft | 449 kts | 245° |
| 2026-05-05 16:50 | 51.02491 | -57.29375 | 39627 ft | 451 kts | 245° |
| 2026-05-05 16:50 | 50.99803 | -57.38395 | 39631 ft | 452 kts | 245° |
| 2026-05-05 16:51 | 50.97126 | -57.47346 | 39647 ft | 452 kts | 245° |
| 2026-05-05 16:51 | 50.94423 | -57.56348 | 39648 ft | 452 kts | 245° |
| 2026-05-05 16:52 | 50.91708 | -57.65358 | 39667 ft | 453 kts | 245° |
| 2026-05-05 16:52 | 50.88986 | -57.74347 | 39665 ft | 452 kts | 245° |
| 2026-05-05 16:53 | 50.86279 | -57.83262 | 39698 ft | 452 kts | 245° |
| 2026-05-05 16:53 | 50.83531 | -57.92284 | 39692 ft | 456 kts | 245° |
| 2026-05-05 16:54 | 50.80767 | -58.01323 | 39705 ft | 456 kts | 245° |
| 2026-05-05 16:54 | 50.77992 | -58.10362 | 39705 ft | 455 kts | 245° |
| 2026-05-05 16:55 | 50.75234 | -58.19309 | 39708 ft | 455 kts | 245° |
| 2026-05-05 16:55 | 50.72455 | -58.28296 | 39711 ft | 455 kts | 245° |
| 2026-05-05 16:56 | 50.69673 | -58.37261 | 39701 ft | 455 kts | 245° |
| 2026-05-05 16:56 | 50.66883 | -58.46218 | 39701 ft | 455 kts | 244° |
| 2026-05-05 16:57 | 50.64102 | -58.55110 | 39710 ft | 455 kts | 244° |
| 2026-05-05 16:57 | 50.61304 | -58.64016 | 39700 ft | 451 kts | 245° |
| 2026-05-05 16:58 | 50.58522 | -58.72853 | 39703 ft | 450 kts | 245° |
| 2026-05-05 16:58 | 50.55718 | -58.81734 | 39698 ft | 454 kts | 244° |
| 2026-05-05 16:59 | 50.52909 | -58.90586 | 39703 ft | 455 kts | 244° |
| 2026-05-05 16:59 | 50.50076 | -58.99485 | 39703 ft | 455 kts | 244° |
| 2026-05-05 17:00 | 50.47242 | -59.08351 | 39694 ft | 452 kts | 244° |
| 2026-05-05 17:00 | 50.44418 | -59.17161 | 39706 ft | 451 kts | 244° |
| 2026-05-05 17:01 | 50.41604 | -59.25907 | 39713 ft | 451 kts | 244° |
| 2026-05-05 17:01 | 50.38766 | -59.34697 | 39701 ft | 452 kts | 244° |
| 2026-05-05 17:02 | 50.35920 | -59.43481 | 39696 ft | 452 kts | 244° |
| 2026-05-05 17:02 | 50.33070 | -59.52242 | 39718 ft | 450 kts | 244° |
| 2026-05-05 17:03 | 50.30237 | -59.60922 | 39716 ft | 450 kts | 244° |
| 2026-05-05 17:03 | 50.27379 | -59.69655 | 39729 ft | 451 kts | 244° |
| 2026-05-05 17:04 | 50.24509 | -59.78388 | 39725 ft | 451 kts | 244° |
| 2026-05-05 17:04 | 50.21634 | -59.87103 | 39730 ft | 451 kts | 244° |
| 2026-05-05 17:05 | 50.18766 | -59.95768 | 39735 ft | 452 kts | 244° |
| 2026-05-05 17:05 | 50.15869 | -60.04496 | 39752 ft | 452 kts | 244° |
| 2026-05-05 17:06 | 50.12966 | -60.13209 | 39741 ft | 452 kts | 244° |
| 2026-05-05 17:06 | 50.10055 | -60.21914 | 39754 ft | 452 kts | 244° |
| 2026-05-05 17:07 | 50.07159 | -60.30545 | 39741 ft | 452 kts | 244° |
| 2026-05-05 17:07 | 50.04236 | -60.39227 | 39755 ft | 452 kts | 244° |
| 2026-05-05 17:08 | 50.01308 | -60.47896 | 39759 ft | 452 kts | 244° |
| 2026-05-05 17:08 | 49.98374 | -60.56556 | 39763 ft | 452 kts | 244° |
| 2026-05-05 17:09 | 49.95452 | -60.65145 | 39762 ft | 452 kts | 244° |
| 2026-05-05 17:09 | 49.92505 | -60.73774 | 39750 ft | 451 kts | 244° |
| 2026-05-05 17:10 | 49.89564 | -60.82360 | 39751 ft | 450 kts | 244° |
| 2026-05-05 17:10 | 49.86621 | -60.90932 | 39756 ft | 450 kts | 244° |
| 2026-05-05 17:11 | 49.83692 | -60.99428 | 39758 ft | 450 kts | 244° |
| 2026-05-05 17:11 | 49.80736 | -61.07974 | 39760 ft | 450 kts | 244° |
| 2026-05-05 17:12 | 49.77775 | -61.16508 | 39756 ft | 449 kts | 243° |
| 2026-05-05 17:12 | 49.74807 | -61.25030 | 39754 ft | 449 kts | 243° |
| 2026-05-05 17:13 | 49.71853 | -61.33486 | 39751 ft | 449 kts | 243° |
| 2026-05-05 17:13 | 49.68873 | -61.41986 | 39752 ft | 449 kts | 243° |
| 2026-05-05 17:14 | 49.65888 | -61.50475 | 39747 ft | 449 kts | 243° |
| 2026-05-05 17:14 | 49.62903 | -61.58928 | 39743 ft | 446 kts | 243° |
| 2026-05-05 17:15 | 49.59947 | -61.67279 | 39743 ft | 446 kts | 243° |
| 2026-05-05 17:15 | 49.56970 | -61.75664 | 39751 ft | 446 kts | 243° |
| 2026-05-05 17:16 | 49.53985 | -61.84042 | 39749 ft | 445 kts | 243° |
| 2026-05-05 17:16 | 49.50995 | -61.92408 | 39748 ft | 445 kts | 243° |
| 2026-05-05 17:17 | 49.48033 | -62.00665 | 39755 ft | 442 kts | 243° |
| 2026-05-05 17:17 | 49.45059 | -62.08931 | 39760 ft | 441 kts | 243° |
| 2026-05-05 17:18 | 49.42082 | -62.17182 | 39767 ft | 439 kts | 243° |
| 2026-05-05 17:18 | 49.39116 | -62.25375 | 39764 ft | 438 kts | 243° |
| 2026-05-05 17:19 | 49.36146 | -62.33550 | 39733 ft | 438 kts | 243° |
| 2026-05-05 17:19 | 49.33208 | -62.41614 | 39767 ft | 435 kts | 243° |
| 2026-05-05 17:20 | 49.30250 | -62.49707 | 39768 ft | 434 kts | 243° |
| 2026-05-05 17:20 | 49.27290 | -62.57782 | 39768 ft | 434 kts | 243° |
| 2026-05-05 17:21 | 49.24344 | -62.65791 | 39774 ft | 434 kts | 243° |
| 2026-05-05 17:22 | 49.19890 | -62.77856 | 39778 ft | 433 kts | 242° |
| 2026-05-05 17:22 | 49.16923 | -62.85861 | 39770 ft | 432 kts | 242° |
| 2026-05-05 17:23 | 49.13953 | -62.93853 | 39768 ft | 432 kts | 242° |
| 2026-05-05 17:23 | 49.11004 | -63.01770 | 39766 ft | 432 kts | 242° |
| 2026-05-05 17:24 | 49.08025 | -63.09733 | 39766 ft | 431 kts | 242° |
| 2026-05-05 17:24 | 49.05041 | -63.17689 | 39751 ft | 432 kts | 242° |
| 2026-05-05 17:25 | 49.02051 | -63.25630 | 39750 ft | 432 kts | 242° |
| 2026-05-05 17:25 | 48.99074 | -63.33517 | 39749 ft | 432 kts | 242° |
| 2026-05-05 17:26 | 48.96072 | -63.41445 | 39747 ft | 432 kts | 242° |
| 2026-05-05 17:26 | 48.93067 | -63.49360 | 39730 ft | 432 kts | 241° |
| 2026-05-05 17:27 | 48.90073 | -63.57223 | 39725 ft | 432 kts | 241° |
| 2026-05-05 17:27 | 48.87053 | -63.65129 | 39729 ft | 432 kts | 241° |
| 2026-05-05 17:28 | 48.84025 | -63.73033 | 39729 ft | 432 kts | 241° |
| 2026-05-05 17:28 | 48.80995 | -63.80923 | 39721 ft | 432 kts | 241° |
| 2026-05-05 17:29 | 48.77977 | -63.88753 | 39718 ft | 432 kts | 241° |
| 2026-05-05 17:29 | 48.74939 | -63.96611 | 39712 ft | 431 kts | 241° |
| 2026-05-05 17:30 | 48.71900 | -64.04448 | 39703 ft | 431 kts | 241° |
| 2026-05-05 17:30 | 48.68853 | -64.12283 | 39693 ft | 431 kts | 241° |
| 2026-05-05 17:31 | 48.65822 | -64.20055 | 39683 ft | 431 kts | 240° |
| 2026-05-05 17:31 | 48.62768 | -64.27863 | 39664 ft | 431 kts | 240° |
| 2026-05-05 17:32 | 48.59709 | -64.35660 | 39674 ft | 430 kts | 240° |
| 2026-05-05 17:32 | 48.56647 | -64.43442 | 39673 ft | 431 kts | 240° |
| 2026-05-05 17:33 | 48.53601 | -64.51163 | 39681 ft | 430 kts | 240° |
| 2026-05-05 17:33 | 48.50529 | -64.58931 | 39705 ft | 431 kts | 240° |
| 2026-05-05 17:34 | 48.47451 | -64.66684 | 39683 ft | 431 kts | 240° |
| 2026-05-05 17:34 | 48.44364 | -64.74438 | 39688 ft | 431 kts | 240° |
| 2026-05-05 17:35 | 48.41291 | -64.82135 | 39690 ft | 431 kts | 240° |
| 2026-05-05 17:35 | 48.38194 | -64.89869 | 39691 ft | 431 kts | 240° |
| 2026-05-05 17:36 | 48.35091 | -64.97600 | 39695 ft | 431 kts | 240° |
| 2026-05-05 17:36 | 48.31986 | -65.05310 | 39692 ft | 431 kts | 240° |
| 2026-05-05 17:37 | 48.28894 | -65.12968 | 39694 ft | 431 kts | 240° |
| 2026-05-05 17:37 | 48.25777 | -65.20665 | 39693 ft | 431 kts | 240° |
| 2026-05-05 17:38 | 48.22655 | -65.28351 | 39689 ft | 431 kts | 240° |
| 2026-05-05 17:38 | 48.19527 | -65.36038 | 39688 ft | 432 kts | 239° |
| 2026-05-05 17:39 | 48.16414 | -65.43659 | 39674 ft | 430 kts | 239° |
| 2026-05-05 17:39 | 48.13281 | -65.51303 | 39678 ft | 430 kts | 239° |
| 2026-05-05 17:40 | 48.10145 | -65.58937 | 39676 ft | 430 kts | 239° |
| 2026-05-05 17:40 | 48.07007 | -65.66553 | 39669 ft | 430 kts | 239° |
| 2026-05-05 17:41 | 48.03885 | -65.74111 | 39667 ft | 430 kts | 239° |
| 2026-05-05 17:41 | 48.00737 | -65.81709 | 39664 ft | 429 kts | 239° |
| 2026-05-05 17:42 | 47.97591 | -65.89281 | 39670 ft | 429 kts | 239° |
| 2026-05-05 17:42 | 47.94439 | -65.96850 | 39663 ft | 429 kts | 239° |
| 2026-05-05 17:43 | 47.91303 | -66.04354 | 39667 ft | 429 kts | 239° |
| 2026-05-05 17:43 | 47.88142 | -66.11902 | 39672 ft | 429 kts | 239° |
| 2026-05-05 17:44 | 47.84981 | -66.19426 | 39667 ft | 428 kts | 239° |
| 2026-05-05 17:44 | 47.81815 | -66.26942 | 39664 ft | 428 kts | 239° |
| 2026-05-05 17:45 | 47.78665 | -66.34397 | 39663 ft | 428 kts | 239° |
| 2026-05-05 17:45 | 47.75489 | -66.41897 | 39662 ft | 428 kts | 239° |
| 2026-05-05 17:46 | 47.72308 | -66.49381 | 39655 ft | 427 kts | 239° |
| 2026-05-05 17:46 | 47.69146 | -66.56803 | 39657 ft | 424 kts | 239° |
| 2026-05-05 17:47 | 47.66005 | -66.64159 | 39655 ft | 424 kts | 239° |
| 2026-05-05 17:47 | 47.62842 | -66.71548 | 39658 ft | 424 kts | 239° |
| 2026-05-05 17:48 | 47.59674 | -66.78927 | 39678 ft | 424 kts | 239° |
| 2026-05-05 17:48 | 47.56514 | -66.86262 | 39652 ft | 421 kts | 239° |
| 2026-05-05 17:49 | 47.53385 | -66.93512 | 39659 ft | 420 kts | 239° |
| 2026-05-05 17:49 | 47.50233 | -67.00794 | 39661 ft | 420 kts | 238° |
| 2026-05-05 17:50 | 47.47077 | -67.08066 | 39662 ft | 420 kts | 238° |
| 2026-05-05 17:50 | 47.43915 | -67.15332 | 39657 ft | 420 kts | 238° |
| 2026-05-05 17:51 | 47.40748 | -67.22583 | 39653 ft | 420 kts | 239° |
| 2026-05-05 17:51 | 47.37393 | -67.29570 | 39663 ft | 420 kts | 234° |
| 2026-05-05 17:52 | 47.33561 | -67.36102 | 39665 ft | 421 kts | 229° |
| 2026-05-05 17:52 | 47.29485 | -67.42329 | 39667 ft | 422 kts | 229° |
| 2026-05-05 17:53 | 47.25408 | -67.48562 | 39666 ft | 422 kts | 229° |
| 2026-05-05 17:53 | 47.21356 | -67.54729 | 39670 ft | 421 kts | 229° |
| 2026-05-05 17:54 | 47.17281 | -67.60909 | 39683 ft | 419 kts | 229° |
| 2026-05-05 17:54 | 47.13229 | -67.67039 | 39675 ft | 417 kts | 229° |
| 2026-05-05 17:55 | 47.09179 | -67.73153 | 39663 ft | 417 kts | 229° |
| 2026-05-05 17:55 | 47.05141 | -67.79232 | 39675 ft | 415 kts | 229° |
| 2026-05-05 17:56 | 47.01131 | -67.85256 | 39677 ft | 415 kts | 229° |
| 2026-05-05 17:56 | 46.97092 | -67.91309 | 39677 ft | 415 kts | 229° |
| 2026-05-05 17:57 | 46.93050 | -67.97354 | 39674 ft | 415 kts | 229° |
| 2026-05-05 17:57 | 46.89011 | -68.03381 | 39666 ft | 414 kts | 228° |
| 2026-05-05 17:58 | 46.85001 | -68.09349 | 39668 ft | 414 kts | 228° |
| 2026-05-05 17:58 | 46.80960 | -68.15350 | 39667 ft | 414 kts | 228° |
| 2026-05-05 17:59 | 46.76920 | -68.21334 | 39674 ft | 414 kts | 228° |
| 2026-05-05 17:59 | 46.72875 | -68.27315 | 39675 ft | 414 kts | 228° |
| 2026-05-05 18:00 | 46.68856 | -68.33241 | 39689 ft | 413 kts | 228° |
| 2026-05-05 18:00 | 46.64806 | -68.39201 | 39683 ft | 413 kts | 228° |
| 2026-05-05 18:01 | 46.60755 | -68.45148 | 39682 ft | 413 kts | 228° |
| 2026-05-05 18:01 | 46.56706 | -68.51083 | 39680 ft | 412 kts | 228° |
| 2026-05-05 18:02 | 46.52702 | -68.56938 | 39692 ft | 410 kts | 227° |
| 2026-05-05 18:02 | 46.48684 | -68.62795 | 39698 ft | 409 kts | 227° |
| 2026-05-05 18:03 | 46.44666 | -68.68641 | 39699 ft | 408 kts | 227° |
| 2026-05-05 18:03 | 46.40678 | -68.74431 | 39692 ft | 408 kts | 227° |
| 2026-05-05 18:04 | 46.36663 | -68.80247 | 39700 ft | 408 kts | 227° |
| 2026-05-05 18:04 | 46.32648 | -68.86051 | 39701 ft | 408 kts | 227° |
| 2026-05-05 18:05 | 46.28630 | -68.91846 | 39690 ft | 408 kts | 227° |
| 2026-05-05 18:05 | 46.24639 | -68.97591 | 39687 ft | 407 kts | 227° |
| 2026-05-05 18:06 | 46.20619 | -69.03364 | 39697 ft | 407 kts | 227° |
| 2026-05-05 18:06 | 46.16596 | -69.09130 | 39694 ft | 407 kts | 227° |
| 2026-05-05 18:07 | 46.12572 | -69.14882 | 39703 ft | 407 kts | 227° |
| 2026-05-05 18:07 | 46.08545 | -69.20629 | 39678 ft | 407 kts | 227° |
| 2026-05-05 18:08 | 46.04544 | -69.26326 | 39695 ft | 407 kts | 227° |
| 2026-05-05 18:08 | 46.00515 | -69.32049 | 39687 ft | 407 kts | 227° |
| 2026-05-05 18:09 | 45.96485 | -69.37762 | 39687 ft | 407 kts | 227° |
| 2026-05-05 18:09 | 45.92450 | -69.43470 | 39688 ft | 407 kts | 227° |
| 2026-05-05 18:10 | 45.88437 | -69.49132 | 39685 ft | 407 kts | 227° |
| 2026-05-05 18:10 | 45.84392 | -69.54829 | 39694 ft | 407 kts | 227° |
| 2026-05-05 18:11 | 45.80342 | -69.60522 | 39695 ft | 407 kts | 227° |
| 2026-05-05 18:11 | 45.76275 | -69.66226 | 39691 ft | 408 kts | 227° |
| 2026-05-05 18:12 | 45.72211 | -69.71912 | 39686 ft | 409 kts | 227° |
| 2026-05-05 18:12 | 45.68138 | -69.77599 | 39694 ft | 409 kts | 227° |
| 2026-05-05 18:13 | 45.64062 | -69.83279 | 39696 ft | 409 kts | 227° |
| 2026-05-05 18:13 | 45.59981 | -69.88953 | 39699 ft | 409 kts | 227° |
| 2026-05-05 18:14 | 45.55921 | -69.94587 | 39700 ft | 410 kts | 226° |
| 2026-05-05 18:14 | 45.51822 | -70.00261 | 39704 ft | 411 kts | 226° |
| 2026-05-05 18:15 | 45.47715 | -70.05934 | 39705 ft | 411 kts | 226° |
| 2026-05-05 18:15 | 45.43636 | -70.11558 | 39707 ft | 410 kts | 226° |
| 2026-05-05 18:16 | 45.39524 | -70.17216 | 39702 ft | 411 kts | 226° |
| 2026-05-05 18:16 | 45.35401 | -70.22874 | 39712 ft | 411 kts | 226° |
| 2026-05-05 18:17 | 45.31276 | -70.28523 | 39711 ft | 411 kts | 226° |
| 2026-05-05 18:17 | 45.27183 | -70.34122 | 39719 ft | 411 kts | 226° |
| 2026-05-05 18:18 | 45.23060 | -70.39743 | 39705 ft | 412 kts | 226° |
| 2026-05-05 18:18 | 45.18917 | -70.45380 | 39713 ft | 412 kts | 226° |
| 2026-05-05 18:19 | 45.14773 | -70.51008 | 39713 ft | 412 kts | 226° |
| 2026-05-05 18:19 | 45.10655 | -70.56589 | 39716 ft | 412 kts | 226° |
| 2026-05-05 18:20 | 45.06506 | -70.62200 | 39718 ft | 412 kts | 226° |
| 2026-05-05 18:20 | 45.02354 | -70.67803 | 39716 ft | 412 kts | 226° |
| 2026-05-05 18:21 | 44.98203 | -70.73393 | 39720 ft | 412 kts | 226° |
| 2026-05-05 18:21 | 44.94075 | -70.78941 | 39719 ft | 412 kts | 226° |
| 2026-05-05 18:22 | 44.89915 | -70.84520 | 39715 ft | 413 kts | 226° |
| 2026-05-05 18:22 | 44.85744 | -70.90102 | 39728 ft | 413 kts | 226° |
| 2026-05-05 18:23 | 44.81567 | -70.95680 | 39729 ft | 413 kts | 226° |
| 2026-05-05 18:23 | 44.77420 | -71.01207 | 39721 ft | 413 kts | 226° |
| 2026-05-05 18:24 | 44.73239 | -71.06767 | 39714 ft | 413 kts | 225° |
| 2026-05-05 18:24 | 44.69054 | -71.12320 | 39714 ft | 413 kts | 225° |
| 2026-05-05 18:25 | 44.64865 | -71.17868 | 39722 ft | 413 kts | 225° |
| 2026-05-05 18:25 | 44.60714 | -71.23356 | 39717 ft | 412 kts | 225° |
| 2026-05-05 18:26 | 44.56528 | -71.28872 | 39730 ft | 413 kts | 225° |
| 2026-05-05 18:26 | 44.52338 | -71.34386 | 39720 ft | 413 kts | 225° |
| 2026-05-05 18:27 | 44.48146 | -71.39889 | 39737 ft | 413 kts | 225° |
| 2026-05-05 18:27 | 44.43980 | -71.45353 | 39698 ft | 413 kts | 225° |
| 2026-05-05 18:28 | 44.37660 | -71.53613 | 39718 ft | 415 kts | 225° |
| 2026-05-05 18:28 | 44.33440 | -71.59116 | 39721 ft | 415 kts | 225° |
| 2026-05-05 18:29 | 44.29213 | -71.64617 | 39743 ft | 415 kts | 225° |
| 2026-05-05 18:29 | 44.25009 | -71.70073 | 39717 ft | 415 kts | 225° |
| 2026-05-05 18:30 | 44.20813 | -71.75613 | 39712 ft | 415 kts | 227° |
| 2026-05-05 18:30 | 44.16815 | -71.81417 | 39725 ft | 415 kts | 228° |
| 2026-05-05 18:31 | 44.12810 | -71.87209 | 39713 ft | 415 kts | 228° |
| 2026-05-05 18:31 | 44.08828 | -71.92964 | 39707 ft | 415 kts | 228° |
| 2026-05-05 18:32 | 44.04815 | -71.98758 | 39700 ft | 415 kts | 228° |
| 2026-05-05 18:32 | 44.00811 | -72.04525 | 39709 ft | 414 kts | 228° |
| 2026-05-05 18:33 | 43.96802 | -72.10287 | 39702 ft | 414 kts | 227° |
| 2026-05-05 18:33 | 43.92810 | -72.16014 | 39696 ft | 416 kts | 227° |
| 2026-05-05 18:34 | 43.88786 | -72.21776 | 39713 ft | 416 kts | 227° |
| 2026-05-05 18:34 | 43.84751 | -72.27541 | 39719 ft | 416 kts | 227° |
| 2026-05-05 18:35 | 43.80716 | -72.33295 | 39713 ft | 416 kts | 227° |
| 2026-05-05 18:35 | 43.76700 | -72.39010 | 39724 ft | 417 kts | 227° |
| 2026-05-05 18:36 | 43.72648 | -72.44763 | 39724 ft | 417 kts | 227° |
| 2026-05-05 18:36 | 43.68596 | -72.50506 | 39723 ft | 417 kts | 227° |
| 2026-05-05 18:37 | 43.64540 | -72.56239 | 39702 ft | 417 kts | 227° |
| 2026-05-05 18:37 | 43.60503 | -72.61938 | 39732 ft | 417 kts | 227° |
| 2026-05-05 18:38 | 43.56439 | -72.67661 | 39733 ft | 417 kts | 227° |
| 2026-05-05 18:38 | 43.52372 | -72.73376 | 39736 ft | 417 kts | 227° |
| 2026-05-05 18:39 | 43.48307 | -72.79081 | 39734 ft | 417 kts | 227° |
| 2026-05-05 18:39 | 43.44265 | -72.84739 | 39740 ft | 417 kts | 227° |
| 2026-05-05 18:40 | 43.40195 | -72.90424 | 39741 ft | 417 kts | 227° |
| 2026-05-05 18:40 | 43.36123 | -72.96102 | 39749 ft | 417 kts | 227° |
| 2026-05-05 18:41 | 43.32048 | -73.01773 | 39730 ft | 418 kts | 227° |
| 2026-05-05 18:41 | 43.27952 | -73.07457 | 39739 ft | 418 kts | 227° |
| 2026-05-05 18:42 | 43.23883 | -73.13096 | 39751 ft | 418 kts | 227° |
| 2026-05-05 18:42 | 43.19781 | -73.18768 | 39754 ft | 418 kts | 227° |
| 2026-05-05 18:43 | 43.15676 | -73.24431 | 39745 ft | 419 kts | 227° |
| 2026-05-05 18:43 | 43.11582 | -73.30069 | 39767 ft | 420 kts | 227° |
| 2026-05-05 18:44 | 43.07458 | -73.35744 | 39770 ft | 420 kts | 226° |
| 2026-05-05 18:44 | 43.03326 | -73.41408 | 39765 ft | 420 kts | 226° |
| 2026-05-05 18:45 | 42.99191 | -73.47067 | 39757 ft | 422 kts | 226° |
| 2026-05-05 18:45 | 42.95066 | -73.52702 | 39764 ft | 422 kts | 226° |
| 2026-05-05 18:46 | 42.90910 | -73.58369 | 39759 ft | 422 kts | 226° |
| 2026-05-05 18:46 | 42.86747 | -73.64033 | 39739 ft | 422 kts | 226° |
| 2026-05-05 18:47 | 42.82583 | -73.69679 | 39747 ft | 422 kts | 227° |
| 2026-05-05 18:47 | 42.78012 | -73.74718 | 39743 ft | 425 kts | 215° |
| 2026-05-05 18:48 | 42.72711 | -73.78272 | 39751 ft | 431 kts | 204° |
| 2026-05-05 18:48 | 42.66834 | -73.80184 | 39738 ft | 439 kts | 191° |
| 2026-05-05 18:49 | 42.60694 | -73.80547 | 39748 ft | 442 kts | 186° |
| 2026-05-05 18:49 | 42.54538 | -73.80656 | 39752 ft | 442 kts | 186° |
| 2026-05-05 18:50 | 42.48426 | -73.80760 | 39754 ft | 442 kts | 186° |
| 2026-05-05 18:50 | 42.42273 | -73.80869 | 39755 ft | 442 kts | 186° |
| 2026-05-05 18:51 | 42.36118 | -73.80976 | 39759 ft | 443 kts | 186° |
| 2026-05-05 18:51 | 42.29961 | -73.81084 | 39769 ft | 443 kts | 186° |
| 2026-05-05 18:52 | 42.23840 | -73.81195 | 39761 ft | 444 kts | 186° |
| 2026-05-05 18:52 | 42.17644 | -73.81303 | 39771 ft | 445 kts | 185° |
| 2026-05-05 18:53 | 42.11447 | -73.81411 | 39776 ft | 445 kts | 185° |
| 2026-05-05 18:53 | 42.05248 | -73.81519 | 39773 ft | 446 kts | 185° |
| 2026-05-05 18:54 | 41.99078 | -73.81628 | 39778 ft | 447 kts | 185° |
| 2026-05-05 18:54 | 41.92861 | -73.81736 | 39795 ft | 447 kts | 185° |
| 2026-05-05 18:55 | 41.86637 | -73.81843 | 39791 ft | 447 kts | 185° |
| 2026-05-05 18:55 | 41.80409 | -73.82138 | 39810 ft | 447 kts | 190° |
| 2026-05-05 18:56 | 41.74323 | -73.83368 | 39818 ft | 443 kts | 197° |
| 2026-05-05 18:56 | 41.68416 | -73.85598 | 39820 ft | 440 kts | 204° |
| 2026-05-05 18:57 | 41.62787 | -73.88729 | 39825 ft | 437 kts | 208° |
| 2026-05-05 18:57 | 41.57248 | -73.92081 | 39826 ft | 437 kts | 208° |
| 2026-05-05 18:58 | 41.51743 | -73.95406 | 39821 ft | 437 kts | 208° |
| 2026-05-05 18:58 | 41.46206 | -73.98759 | 39804 ft | 437 kts | 210° |
| 2026-05-05 18:59 | 41.40866 | -74.02588 | 39827 ft | 435 kts | 215° |
| 2026-05-05 18:59 | 41.35866 | -74.07098 | 39825 ft | 433 kts | 220° |
| 2026-05-05 19:00 | 41.31133 | -74.11957 | 39836 ft | 432 kts | 220° |
| 2026-05-05 19:00 | 41.26372 | -74.16867 | 39838 ft | 433 kts | 222° |
| 2026-05-05 19:01 | 41.21889 | -74.22227 | 39292 ft | 433 kts | 227° |
| 2026-05-05 19:01 | 41.19822 | -74.25130 | 38795 ft | 431 kts | 230° |
| 2026-05-05 19:01 | 41.17881 | -74.28166 | 38209 ft | 430 kts | 233° |
| 2026-05-05 19:02 | 41.16067 | -74.31319 | 37591 ft | 429 kts | 236° |
| 2026-05-05 19:02 | 41.14381 | -74.34594 | 37020 ft | 430 kts | 239° |
| 2026-05-05 19:02 | 41.12816 | -74.37933 | 36482 ft | 432 kts | 242° |
| 2026-05-05 19:02 | 41.11238 | -74.41334 | 35863 ft | 434 kts | 243° |
| 2026-05-05 19:03 | 41.09654 | -74.44761 | 35268 ft | 436 kts | 243° |
| 2026-05-05 19:03 | 41.08064 | -74.48205 | 34656 ft | 439 kts | 244° |
| 2026-05-05 19:03 | 41.06464 | -74.51668 | 34033 ft | 441 kts | 244° |
| 2026-05-05 19:03 | 41.04858 | -74.55147 | 33324 ft | 443 kts | 244° |
| 2026-05-05 19:04 | 41.03251 | -74.58641 | 32659 ft | 444 kts | 243° |
| 2026-05-05 19:04 | 41.01639 | -74.62138 | 32006 ft | 445 kts | 243° |
| 2026-05-05 19:04 | 41.00566 | -74.64458 | 31589 ft | 446 kts | 242° |
| 2026-05-05 19:04 | 40.98413 | -74.69099 | 30706 ft | 447 kts | 241° |
| 2026-05-05 19:05 | 40.96780 | -74.72606 | 30023 ft | 448 kts | 240° |
| 2026-05-05 19:05 | 40.95135 | -74.76128 | 29224 ft | 450 kts | 240° |
| 2026-05-05 19:05 | 40.93483 | -74.79650 | 28472 ft | 450 kts | 240° |
| 2026-05-05 19:05 | 40.91832 | -74.83174 | 27722 ft | 450 kts | 240° |
| 2026-05-05 19:06 | 40.90193 | -74.86669 | 27314 ft | 441 kts | 240° |
| 2026-05-05 19:06 | 40.89121 | -74.88955 | 27245 ft | 441 kts | 240° |
| 2026-05-05 19:06 | 40.87505 | -74.92399 | 27073 ft | 440 kts | 240° |
| 2026-05-05 19:06 | 40.85893 | -74.95829 | 26811 ft | 438 kts | 240° |
| 2026-05-05 19:07 | 40.84286 | -74.99246 | 26558 ft | 436 kts | 240° |
| 2026-05-05 19:07 | 40.82688 | -75.02638 | 26308 ft | 435 kts | 240° |
| 2026-05-05 19:07 | 40.80573 | -75.07123 | 25987 ft | 432 kts | 240° |
| 2026-05-05 19:07 | 40.78984 | -75.10484 | 25717 ft | 430 kts | 240° |
| 2026-05-05 19:08 | 40.77937 | -75.12699 | 25547 ft | 429 kts | 240° |
| 2026-05-05 19:08 | 40.76356 | -75.16041 | 25308 ft | 428 kts | 240° |
| 2026-05-05 19:08 | 40.74783 | -75.19364 | 25062 ft | 426 kts | 240° |
| 2026-05-05 19:08 | 40.73212 | -75.22678 | 24813 ft | 424 kts | 240° |
| 2026-05-05 19:09 | 40.71647 | -75.25974 | 24591 ft | 423 kts | 240° |
| 2026-05-05 19:09 | 40.70089 | -75.29254 | 24351 ft | 421 kts | 240° |
| 2026-05-05 19:09 | 40.68537 | -75.32515 | 24113 ft | 419 kts | 240° |
| 2026-05-05 19:09 | 40.66490 | -75.36820 | 23803 ft | 417 kts | 240° |
| 2026-05-05 19:10 | 40.65490 | -75.39042 | 23651 ft | 415 kts | 242° |
| 2026-05-05 19:10 | 40.64089 | -75.42305 | 23415 ft | 414 kts | 242° |
| 2026-05-05 19:10 | 40.62671 | -75.45597 | 23130 ft | 412 kts | 242° |
| 2026-05-05 19:10 | 40.61260 | -75.48867 | 22873 ft | 410 kts | 242° |
| 2026-05-05 19:11 | 40.59850 | -75.52130 | 22600 ft | 408 kts | 242° |
| 2026-05-05 19:11 | 40.58448 | -75.55373 | 22328 ft | 406 kts | 242° |
| 2026-05-05 19:11 | 40.57052 | -75.58604 | 22069 ft | 405 kts | 242° |
| 2026-05-05 19:11 | 40.55661 | -75.61817 | 21814 ft | 403 kts | 242° |
| 2026-05-05 19:12 | 40.54276 | -75.65015 | 21551 ft | 401 kts | 242° |
| 2026-05-05 19:12 | 40.52896 | -75.68198 | 21285 ft | 400 kts | 242° |
| 2026-05-05 19:12 | 40.51539 | -75.71326 | 21038 ft | 398 kts | 242° |
| 2026-05-05 19:12 | 40.50168 | -75.74479 | 20781 ft | 396 kts | 242° |
| 2026-05-05 19:13 | 40.48801 | -75.77621 | 20533 ft | 395 kts | 242° |
| 2026-05-05 19:13 | 40.47441 | -75.80745 | 20298 ft | 392 kts | 242° |
| 2026-05-05 19:13 | 40.46071 | -75.83844 | 20031 ft | 391 kts | 240° |
| 2026-05-05 19:13 | 40.44568 | -75.86819 | 19807 ft | 391 kts | 237° |
| 2026-05-05 19:14 | 40.42905 | -75.89648 | 19620 ft | 391 kts | 233° |
| 2026-05-05 19:14 | 40.41095 | -75.92311 | 19420 ft | 391 kts | 229° |
| 2026-05-05 19:14 | 40.39189 | -75.94792 | 19206 ft | 391 kts | 227° |
| 2026-05-05 19:14 | 40.37240 | -75.97278 | 19022 ft | 390 kts | 227° |
| 2026-05-05 19:15 | 40.35294 | -75.99749 | 18834 ft | 389 kts | 227° |
| 2026-05-05 19:15 | 40.33356 | -76.02205 | 18646 ft | 387 kts | 227° |
| 2026-05-05 19:15 | 40.31422 | -76.04654 | 18459 ft | 386 kts | 227° |
| 2026-05-05 19:15 | 40.29492 | -76.07094 | 18272 ft | 385 kts | 227° |
| 2026-05-05 19:16 | 40.27568 | -76.09529 | 18064 ft | 384 kts | 227° |
| 2026-05-05 19:16 | 40.25648 | -76.11956 | 17841 ft | 383 kts | 227° |
| 2026-05-05 19:16 | 40.23731 | -76.14374 | 17644 ft | 382 kts | 227° |
| 2026-05-05 19:16 | 40.21823 | -76.16777 | 17431 ft | 379 kts | 227° |
| 2026-05-05 19:17 | 40.19954 | -76.19131 | 17223 ft | 377 kts | 227° |
| 2026-05-05 19:17 | 40.18067 | -76.21505 | 17015 ft | 376 kts | 227° |
| 2026-05-05 19:17 | 40.16186 | -76.23872 | 16787 ft | 374 kts | 227° |
| 2026-05-05 19:17 | 40.14346 | -76.26266 | 16596 ft | 372 kts | 230° |
| 2026-05-05 19:18 | 40.12640 | -76.28795 | 16383 ft | 369 kts | 233° |
| 2026-05-05 19:18 | 40.11080 | -76.31452 | 16195 ft | 367 kts | 237° |
| 2026-05-05 19:18 | 40.09671 | -76.34224 | 15962 ft | 365 kts | 240° |
| 2026-05-05 19:18 | 40.08353 | -76.37054 | 15754 ft | 363 kts | 241° |
| 2026-05-05 19:19 | 40.07046 | -76.39877 | 15564 ft | 362 kts | 241° |
| 2026-05-05 19:19 | 40.05763 | -76.42653 | 15360 ft | 361 kts | 241° |
| 2026-05-05 19:19 | 40.04468 | -76.45455 | 15177 ft | 359 kts | 241° |
| 2026-05-05 19:19 | 40.03177 | -76.48249 | 14974 ft | 358 kts | 241° |
| 2026-05-05 19:20 | 40.01890 | -76.51030 | 14776 ft | 357 kts | 241° |
| 2026-05-05 19:20 | 40.00602 | -76.53812 | 14581 ft | 358 kts | 241° |
| 2026-05-05 19:20 | 39.99315 | -76.56585 | 14389 ft | 357 kts | 240° |
| 2026-05-05 19:20 | 39.98030 | -76.59351 | 14194 ft | 356 kts | 241° |
| 2026-05-05 19:21 | 39.96747 | -76.62110 | 14014 ft | 355 kts | 241° |
| 2026-05-05 19:21 | 39.95466 | -76.64863 | 13859 ft | 354 kts | 241° |
| 2026-05-05 19:21 | 39.94208 | -76.67566 | 13681 ft | 353 kts | 241° |
| 2026-05-05 19:21 | 39.92934 | -76.70303 | 13507 ft | 352 kts | 241° |
| 2026-05-05 19:22 | 39.91663 | -76.73031 | 13308 ft | 351 kts | 241° |
| 2026-05-05 19:22 | 39.90395 | -76.75750 | 13136 ft | 350 kts | 240° |
| 2026-05-05 19:22 | 39.89131 | -76.78458 | 12944 ft | 349 kts | 240° |
| 2026-05-05 19:22 | 39.87868 | -76.81156 | 12768 ft | 348 kts | 240° |
| 2026-05-05 19:23 | 39.86608 | -76.83848 | 12575 ft | 347 kts | 240° |
| 2026-05-05 19:23 | 39.85349 | -76.86537 | 12404 ft | 347 kts | 240° |
| 2026-05-05 19:23 | 39.84096 | -76.89207 | 12239 ft | 345 kts | 240° |
| 2026-05-05 19:23 | 39.82862 | -76.91834 | 12065 ft | 344 kts | 240° |
| 2026-05-05 19:24 | 39.81618 | -76.94487 | 11888 ft | 343 kts | 240° |
| 2026-05-05 19:24 | 39.80376 | -76.97130 | 11718 ft | 342 kts | 240° |
| 2026-05-05 19:24 | 39.79137 | -76.99767 | 11533 ft | 341 kts | 240° |
| 2026-05-05 19:24 | 39.77899 | -77.02399 | 11368 ft | 340 kts | 239° |
| 2026-05-05 19:25 | 39.76663 | -77.05024 | 11187 ft | 340 kts | 239° |
| 2026-05-05 19:25 | 39.75426 | -77.07646 | 11017 ft | 339 kts | 239° |
| 2026-05-05 19:25 | 39.74193 | -77.10262 | 10829 ft | 340 kts | 239° |
| 2026-05-05 19:25 | 39.72971 | -77.12848 | 10657 ft | 340 kts | 239° |
| 2026-05-05 19:26 | 39.71734 | -77.15462 | 10489 ft | 339 kts | 239° |
| 2026-05-05 19:26 | 39.70500 | -77.18070 | 10305 ft | 338 kts | 239° |
| 2026-05-05 19:26 | 39.69239 | -77.20647 | 10116 ft | 338 kts | 236° |
| 2026-05-05 19:26 | 39.67803 | -77.23009 | 9897 ft | 326 kts | 230° |
| 2026-05-05 19:27 | 39.66260 | -77.25052 | 9905 ft | 307 kts | 225° |
| 2026-05-05 19:27 | 39.64743 | -77.26890 | 9914 ft | 289 kts | 224° |
| 2026-05-05 19:27 | 39.63313 | -77.28607 | 9933 ft | 272 kts | 224° |
| 2026-05-05 19:27 | 39.61958 | -77.30232 | 9950 ft | 261 kts | 225° |
| 2026-05-05 19:28 | 39.60625 | -77.31833 | 9795 ft | 261 kts | 225° |
| 2026-05-05 19:28 | 39.59297 | -77.33431 | 9482 ft | 259 kts | 224° |
| 2026-05-05 19:28 | 39.57981 | -77.35008 | 9124 ft | 257 kts | 223° |
| 2026-05-05 19:28 | 39.56528 | -77.36347 | 9006 ft | 257 kts | 214° |
| 2026-05-05 19:29 | 39.55002 | -77.37525 | 8994 ft | 259 kts | 213° |
| 2026-05-05 19:29 | 39.53450 | -77.38720 | 8994 ft | 260 kts | 213° |
| 2026-05-05 19:29 | 39.51904 | -77.39931 | 8994 ft | 260 kts | 214° |
| 2026-05-05 19:29 | 39.50360 | -77.41159 | 8993 ft | 260 kts | 214° |
| 2026-05-05 19:30 | 39.48819 | -77.42395 | 8868 ft | 260 kts | 214° |
| 2026-05-05 19:30 | 39.47213 | -77.43470 | 8702 ft | 261 kts | 206° |
| 2026-05-05 19:30 | 39.45525 | -77.44334 | 8545 ft | 261 kts | 204° |
| 2026-05-05 19:30 | 39.43784 | -77.45026 | 8337 ft | 262 kts | 195° |
| 2026-05-05 19:31 | 39.41986 | -77.45292 | 8141 ft | 265 kts | 187° |
| 2026-05-05 19:31 | 39.40142 | -77.45348 | 7936 ft | 265 kts | 185° |
| 2026-05-05 19:31 | 39.38312 | -77.45359 | 7627 ft | 263 kts | 184° |
| 2026-05-05 19:31 | 39.36483 | -77.45369 | 7248 ft | 262 kts | 184° |
| 2026-05-05 19:32 | 39.34667 | -77.45384 | 6885 ft | 260 kts | 184° |
| 2026-05-05 19:32 | 39.32859 | -77.45404 | 6577 ft | 258 kts | 184° |
| 2026-05-05 19:32 | 39.31071 | -77.45428 | 6261 ft | 256 kts | 184° |
| 2026-05-05 19:32 | 39.29299 | -77.45453 | 5927 ft | 254 kts | 184° |
| 2026-05-05 19:33 | 39.27547 | -77.45479 | 5644 ft | 249 kts | 184° |
| 2026-05-05 19:33 | 39.25853 | -77.45505 | 5415 ft | 244 kts | 184° |
| 2026-05-05 19:33 | 39.24175 | -77.45530 | 5185 ft | 237 kts | 184° |
| 2026-05-05 19:33 | 39.22553 | -77.45554 | 5086 ft | 232 kts | 184° |
| 2026-05-05 19:34 | 39.20937 | -77.45582 | 4823 ft | 232 kts | 183° |
| 2026-05-05 19:34 | 39.19337 | -77.45607 | 4498 ft | 227 kts | 184° |
| 2026-05-05 19:34 | 39.17780 | -77.45631 | 4204 ft | 221 kts | 184° |
| 2026-05-05 19:35 | 39.14741 | -77.45675 | 3633 ft | 214 kts | 184° |
| 2026-05-05 19:35 | 39.13288 | -77.45695 | 3378 ft | 209 kts | 184° |
| 2026-05-05 19:35 | 39.11853 | -77.45715 | 3119 ft | 202 kts | 184° |
| 2026-05-05 19:35 | 39.10482 | -77.45734 | 2887 ft | 191 kts | 185° |
| 2026-05-05 19:36 | 39.09187 | -77.45753 | 2665 ft | 180 kts | 185° |
| 2026-05-05 19:36 | 39.07980 | -77.45770 | 2430 ft | 167 kts | 185° |
| 2026-05-05 19:36 | 39.06872 | -77.45784 | 2146 ft | 152 kts | 186° |
| 2026-05-05 19:36 | 39.05858 | -77.45797 | 1947 ft | 140 kts | 186° |
| 2026-05-05 19:37 | 39.04917 | -77.45812 | 1779 ft | 133 kts | 186° |
| 2026-05-05 19:37 | 39.03992 | -77.45830 | 1611 ft | 133 kts | 185° |
| 2026-05-05 19:37 | 39.03070 | -77.45842 | 1450 ft | 132 kts | 187° |
| 2026-05-05 19:37 | 39.02155 | -77.45856 | 1302 ft | 131 kts | 188° |
| 2026-05-05 19:38 | 39.01245 | -77.45873 | 1112 ft | 135 kts | 185° |
| 2026-05-05 19:38 | 39.00300 | -77.45883 | 991 ft | 134 kts | 185° |
| 2026-05-05 19:38 | 38.99376 | -77.45896 | 784 ft | 132 kts | 185° |
| 2026-05-05 19:38 | 38.98462 | -77.45901 | 508 ft | 131 kts | 186° |
| 2026-05-05 19:39 | 38.97545 | -77.45923 | 399 ft | 131 kts | 185° |
| 2026-05-05 19:39 | 38.96644 | -77.45940 | 311 ft | 120 kts | 182° |
| 2026-05-05 19:39 | 38.96037 | -77.45950 | 309 ft | 59 kts | 180° |
| 2026-05-05 19:39 | 38.95747 | -77.45953 | 311 ft | 35 kts | 180° |
| 2026-05-05 19:40 | 38.95543 | -77.45930 | 313 ft | 21 kts | 167° |
| 2026-05-05 19:40 | 38.95414 | -77.45858 | 312 ft | 16 kts | 152° |
| 2026-05-05 19:40 | 38.95307 | -77.45781 | 311 ft | 19 kts | 150° |
| 2026-05-05 19:40 | 38.95176 | -77.45720 | 310 ft | 18 kts | 170° |
| 2026-05-05 19:41 | 38.95075 | -77.45715 | 311 ft | 12 kts | 168° |
| 2026-05-05 19:41 | 38.95027 | -77.45640 | 311 ft | 9 kts | 95° |
| 2026-05-05 19:41 | 38.95026 | -77.45545 | 309 ft | 13 kts | 91° |
| 2026-05-05 19:41 | 38.95024 | -77.45418 | 309 ft | 13 kts | 91° |
| 2026-05-05 19:42 | 38.95022 | -77.45293 | 309 ft | 11 kts | 91° |
| 2026-05-05 19:42 | 38.95021 | -77.45190 | 309 ft | 8 kts | 91° |
| 2026-05-05 19:42 | 38.95020 | -77.45122 | 309 ft | 10 kts | 90° |
| 2026-05-05 19:42 | 38.95020 | -77.45038 | 309 ft | 9 kts | 90° |
| 2026-05-05 19:43 | 38.95019 | -77.45021 | 309 ft | 3 kts | 90° |
| 2026-05-05 19:43 | 38.95010 | -77.45003 | 310 ft | 2 kts | 150° |
| 2026-05-05 19:43 | 38.94988 | -77.45000 | 310 ft | 1 kts | 187° |
| 2026-05-05 19:43 | 38.94973 | -77.45005 | 310 ft | 4 kts | 195° |
| 2026-05-05 19:44 | 38.94953 | -77.45013 | 310 ft | 2 kts | 197° |
| 2026-05-05 19:44 | 38.94943 | -77.45017 | 311 ft | 0 kts | 199° |
| 2026-05-05 19:44 | 38.94941 | -77.45018 | 310 ft | 0 kts | 199° |